<?xml version="1.0" encoding="UTF-8" standalone="no" ?>
<gpx xmlns="http://www.topografix.com/GPX/1/1" xmlns:xsi="http://www.w3.org/2001/XMLSchema-instance" xsi:schemaLocation="http://www.topografix.com/GPX/1/1 http://www.topografix.com/GPX/1/1/gpx.xsd" version="1.1" creator="VisuGPX - https://www.visugpx.com">
  <metadata>
    <name>Saint Gens</name>
    <desc><![CDATA[A modifier]]></desc>
  </metadata>
  <trk>
    <name><![CDATA[2021-09-19 16:07:12]]></name>
    <extensions>
      <line xmlns="http://www.topografix.com/GPX/gpx_style/0/2">
        <color>0000FF</color>
        <width>4</width>
      </line>
    </extensions>
    <trkseg>
      <trkpt lat="43.96777" lon="5.12956">
        <ele>395.3</ele>
        <time>2021-09-19T08:22:57Z</time>
      </trkpt>
      <trkpt lat="43.96776" lon="5.12957">
        <ele>395.4</ele>
        <time>2021-09-19T08:22:58Z</time>
      </trkpt>
      <trkpt lat="43.9677" lon="5.1296">
        <ele>395.7</ele>
        <time>2021-09-19T08:23:05Z</time>
      </trkpt>
      <trkpt lat="43.96761" lon="5.12976">
        <ele>397.2</ele>
        <time>2021-09-19T08:23:21Z</time>
      </trkpt>
      <trkpt lat="43.96763" lon="5.12993">
        <ele>398.9</ele>
        <time>2021-09-19T08:23:40Z</time>
      </trkpt>
      <trkpt lat="43.96755" lon="5.1301">
        <ele>400.6</ele>
        <time>2021-09-19T08:24:01Z</time>
      </trkpt>
      <trkpt lat="43.96745" lon="5.13024">
        <ele>402.2</ele>
        <time>2021-09-19T08:24:23Z</time>
      </trkpt>
      <trkpt lat="43.96733" lon="5.1304">
        <ele>404.1</ele>
        <time>2021-09-19T08:24:45Z</time>
      </trkpt>
      <trkpt lat="43.96729" lon="5.13049">
        <ele>405.1</ele>
        <time>2021-09-19T08:25:15Z</time>
      </trkpt>
      <trkpt lat="43.9672" lon="5.13062">
        <ele>406.7</ele>
        <time>2021-09-19T08:25:36Z</time>
      </trkpt>
      <trkpt lat="43.96709" lon="5.13076">
        <ele>408.7</ele>
        <time>2021-09-19T08:25:57Z</time>
      </trkpt>
      <trkpt lat="43.96702" lon="5.13096">
        <ele>411.1</ele>
        <time>2021-09-19T08:26:17Z</time>
      </trkpt>
      <trkpt lat="43.96699" lon="5.13115">
        <ele>413.1</ele>
        <time>2021-09-19T08:26:36Z</time>
      </trkpt>
      <trkpt lat="43.96694" lon="5.13133">
        <ele>415.3</ele>
        <time>2021-09-19T08:26:55Z</time>
      </trkpt>
      <trkpt lat="43.96689" lon="5.13151">
        <ele>417.7</ele>
        <time>2021-09-19T08:27:14Z</time>
      </trkpt>
      <trkpt lat="43.96684" lon="5.13159">
        <ele>419.1</ele>
        <time>2021-09-19T08:27:37Z</time>
      </trkpt>
      <trkpt lat="43.96678" lon="5.13168">
        <ele>420.7</ele>
        <time>2021-09-19T08:27:58Z</time>
      </trkpt>
      <trkpt lat="43.96671" lon="5.13182">
        <ele>422.2</ele>
        <time>2021-09-19T08:28:18Z</time>
      </trkpt>
      <trkpt lat="43.9666" lon="5.13199">
        <ele>423.9</ele>
        <time>2021-09-19T08:28:41Z</time>
      </trkpt>
      <trkpt lat="43.96651" lon="5.13216">
        <ele>425.5</ele>
        <time>2021-09-19T08:29:00Z</time>
      </trkpt>
      <trkpt lat="43.96641" lon="5.13236">
        <ele>427.5</ele>
        <time>2021-09-19T08:29:21Z</time>
      </trkpt>
      <trkpt lat="43.96628" lon="5.13251">
        <ele>429.8</ele>
        <time>2021-09-19T08:29:40Z</time>
      </trkpt>
      <trkpt lat="43.96626" lon="5.13253">
        <ele>430.2</ele>
        <time>2021-09-19T08:29:41Z</time>
      </trkpt>
      <trkpt lat="43.96615" lon="5.13263">
        <ele>432.5</ele>
        <time>2021-09-19T08:29:53Z</time>
      </trkpt>
      <trkpt lat="43.96604" lon="5.13274">
        <ele>435</ele>
        <time>2021-09-19T08:30:08Z</time>
      </trkpt>
      <trkpt lat="43.96597" lon="5.13282">
        <ele>436.9</ele>
        <time>2021-09-19T08:30:25Z</time>
      </trkpt>
      <trkpt lat="43.96598" lon="5.13278">
        <ele>436.3</ele>
        <time>2021-09-19T08:30:41Z</time>
      </trkpt>
      <trkpt lat="43.96596" lon="5.13289">
        <ele>438</ele>
        <time>2021-09-19T08:31:13Z</time>
      </trkpt>
      <trkpt lat="43.96593" lon="5.13308">
        <ele>440.9</ele>
        <time>2021-09-19T08:31:36Z</time>
      </trkpt>
      <trkpt lat="43.96591" lon="5.13322">
        <ele>443.2</ele>
        <time>2021-09-19T08:32:03Z</time>
      </trkpt>
      <trkpt lat="43.96587" lon="5.13346">
        <ele>446.9</ele>
        <time>2021-09-19T08:32:24Z</time>
      </trkpt>
      <trkpt lat="43.96585" lon="5.13368">
        <ele>449.9</ele>
        <time>2021-09-19T08:32:42Z</time>
      </trkpt>
      <trkpt lat="43.96588" lon="5.1339">
        <ele>452.2</ele>
        <time>2021-09-19T08:33:03Z</time>
      </trkpt>
      <trkpt lat="43.96588" lon="5.13412">
        <ele>454.9</ele>
        <time>2021-09-19T08:33:25Z</time>
      </trkpt>
      <trkpt lat="43.96585" lon="5.13437">
        <ele>456.1</ele>
        <time>2021-09-19T08:33:48Z</time>
      </trkpt>
      <trkpt lat="43.96579" lon="5.13456">
        <ele>456.8</ele>
        <time>2021-09-19T08:34:06Z</time>
      </trkpt>
      <trkpt lat="43.96565" lon="5.13475">
        <ele>458.2</ele>
        <time>2021-09-19T08:34:23Z</time>
      </trkpt>
      <trkpt lat="43.9655" lon="5.13478">
        <ele>459.5</ele>
        <time>2021-09-19T08:34:43Z</time>
      </trkpt>
      <trkpt lat="43.96534" lon="5.13484">
        <ele>461</ele>
        <time>2021-09-19T08:35:03Z</time>
      </trkpt>
      <trkpt lat="43.96518" lon="5.13502">
        <ele>462.3</ele>
        <time>2021-09-19T08:35:22Z</time>
      </trkpt>
      <trkpt lat="43.96518" lon="5.13503">
        <ele>462.2</ele>
        <time>2021-09-19T08:35:23Z</time>
      </trkpt>
      <trkpt lat="43.96504" lon="5.13523">
        <ele>462</ele>
        <time>2021-09-19T08:35:43Z</time>
      </trkpt>
      <trkpt lat="43.96488" lon="5.13538">
        <ele>461.8</ele>
        <time>2021-09-19T08:36:03Z</time>
      </trkpt>
      <trkpt lat="43.96479" lon="5.13543">
        <ele>461.9</ele>
        <time>2021-09-19T08:36:12Z</time>
      </trkpt>
      <trkpt lat="43.96458" lon="5.13551">
        <ele>462.3</ele>
        <time>2021-09-19T08:36:31Z</time>
      </trkpt>
      <trkpt lat="43.96439" lon="5.13558">
        <ele>462.8</ele>
        <time>2021-09-19T08:36:49Z</time>
      </trkpt>
      <trkpt lat="43.96424" lon="5.13564">
        <ele>463</ele>
        <time>2021-09-19T08:37:04Z</time>
      </trkpt>
      <trkpt lat="43.9642" lon="5.13569">
        <ele>462.9</ele>
        <time>2021-09-19T08:37:09Z</time>
      </trkpt>
      <trkpt lat="43.96401" lon="5.13579">
        <ele>462.7</ele>
        <time>2021-09-19T08:37:26Z</time>
      </trkpt>
      <trkpt lat="43.96378" lon="5.13587">
        <ele>462.3</ele>
        <time>2021-09-19T08:37:45Z</time>
      </trkpt>
      <trkpt lat="43.96357" lon="5.13596">
        <ele>461.3</ele>
        <time>2021-09-19T08:38:03Z</time>
      </trkpt>
      <trkpt lat="43.96333" lon="5.13605">
        <ele>460.9</ele>
        <time>2021-09-19T08:38:24Z</time>
      </trkpt>
      <trkpt lat="43.96307" lon="5.1361">
        <ele>461.2</ele>
        <time>2021-09-19T08:38:44Z</time>
      </trkpt>
      <trkpt lat="43.96292" lon="5.13615">
        <ele>461.1</ele>
        <time>2021-09-19T08:38:59Z</time>
      </trkpt>
      <trkpt lat="43.9627" lon="5.13622">
        <ele>461.1</ele>
        <time>2021-09-19T08:39:19Z</time>
      </trkpt>
      <trkpt lat="43.96242" lon="5.13627">
        <ele>461.5</ele>
        <time>2021-09-19T08:39:41Z</time>
      </trkpt>
      <trkpt lat="43.96222" lon="5.13631">
        <ele>461.5</ele>
        <time>2021-09-19T08:39:58Z</time>
      </trkpt>
      <trkpt lat="43.96203" lon="5.13633">
        <ele>461.8</ele>
        <time>2021-09-19T08:40:15Z</time>
      </trkpt>
      <trkpt lat="43.96181" lon="5.13643">
        <ele>461</ele>
        <time>2021-09-19T08:40:36Z</time>
      </trkpt>
      <trkpt lat="43.96162" lon="5.13647">
        <ele>461</ele>
        <time>2021-09-19T08:40:56Z</time>
      </trkpt>
      <trkpt lat="43.96147" lon="5.13647">
        <ele>461.5</ele>
        <time>2021-09-19T08:41:14Z</time>
      </trkpt>
      <trkpt lat="43.96141" lon="5.13648">
        <ele>461.6</ele>
        <time>2021-09-19T08:41:19Z</time>
      </trkpt>
      <trkpt lat="43.96124" lon="5.1365">
        <ele>461.9</ele>
        <time>2021-09-19T08:41:36Z</time>
      </trkpt>
      <trkpt lat="43.9612" lon="5.13651">
        <ele>462</ele>
        <time>2021-09-19T08:41:40Z</time>
      </trkpt>
      <trkpt lat="43.96107" lon="5.1366">
        <ele>461.5</ele>
        <time>2021-09-19T08:41:58Z</time>
      </trkpt>
      <trkpt lat="43.96099" lon="5.13667">
        <ele>461.3</ele>
        <time>2021-09-19T08:42:28Z</time>
      </trkpt>
      <trkpt lat="43.96094" lon="5.13665">
        <ele>461.6</ele>
        <time>2021-09-19T08:42:49Z</time>
      </trkpt>
      <trkpt lat="43.9609" lon="5.13662">
        <ele>462.1</ele>
        <time>2021-09-19T08:42:56Z</time>
      </trkpt>
      <trkpt lat="43.96069" lon="5.13644">
        <ele>464.6</ele>
        <time>2021-09-19T08:43:19Z</time>
      </trkpt>
      <trkpt lat="43.96056" lon="5.13633">
        <ele>465.7</ele>
        <time>2021-09-19T08:43:35Z</time>
      </trkpt>
      <trkpt lat="43.96054" lon="5.13631">
        <ele>465.9</ele>
        <time>2021-09-19T08:43:37Z</time>
      </trkpt>
      <trkpt lat="43.96035" lon="5.13618">
        <ele>466.9</ele>
        <time>2021-09-19T08:43:57Z</time>
      </trkpt>
      <trkpt lat="43.96017" lon="5.13612">
        <ele>467.2</ele>
        <time>2021-09-19T08:44:15Z</time>
      </trkpt>
      <trkpt lat="43.96003" lon="5.13604">
        <ele>467.2</ele>
        <time>2021-09-19T08:44:29Z</time>
      </trkpt>
      <trkpt lat="43.95987" lon="5.13591">
        <ele>468.1</ele>
        <time>2021-09-19T08:44:44Z</time>
      </trkpt>
      <trkpt lat="43.95966" lon="5.13567">
        <ele>470.9</ele>
        <time>2021-09-19T08:45:09Z</time>
      </trkpt>
      <trkpt lat="43.95963" lon="5.13562">
        <ele>471.5</ele>
        <time>2021-09-19T08:45:28Z</time>
      </trkpt>
      <trkpt lat="43.95959" lon="5.1355">
        <ele>472.8</ele>
        <time>2021-09-19T08:45:45Z</time>
      </trkpt>
      <trkpt lat="43.95951" lon="5.13534">
        <ele>474.4</ele>
        <time>2021-09-19T08:45:59Z</time>
      </trkpt>
      <trkpt lat="43.95939" lon="5.13512">
        <ele>476.2</ele>
        <time>2021-09-19T08:46:18Z</time>
      </trkpt>
      <trkpt lat="43.95926" lon="5.13497">
        <ele>477.3</ele>
        <time>2021-09-19T08:46:34Z</time>
      </trkpt>
      <trkpt lat="43.95919" lon="5.13488">
        <ele>478</ele>
        <time>2021-09-19T08:46:42Z</time>
      </trkpt>
      <trkpt lat="43.95905" lon="5.13472">
        <ele>480.4</ele>
        <time>2021-09-19T08:47:00Z</time>
      </trkpt>
      <trkpt lat="43.95882" lon="5.13448">
        <ele>483.7</ele>
        <time>2021-09-19T08:47:28Z</time>
      </trkpt>
      <trkpt lat="43.95872" lon="5.13442">
        <ele>484.6</ele>
        <time>2021-09-19T08:47:48Z</time>
      </trkpt>
      <trkpt lat="43.95869" lon="5.13431">
        <ele>485.2</ele>
        <time>2021-09-19T08:48:15Z</time>
      </trkpt>
      <trkpt lat="43.95869" lon="5.13435">
        <ele>485.1</ele>
        <time>2021-09-19T08:48:34Z</time>
      </trkpt>
      <trkpt lat="43.95869" lon="5.13435">
        <ele>485.1</ele>
        <time>2021-09-19T08:50:12Z</time>
      </trkpt>
      <trkpt lat="43.95868" lon="5.13434">
        <ele>485.1</ele>
        <time>2021-09-19T08:51:21Z</time>
      </trkpt>
      <trkpt lat="43.95866" lon="5.13434">
        <ele>485.3</ele>
        <time>2021-09-19T08:51:56Z</time>
      </trkpt>
      <trkpt lat="43.95863" lon="5.13402">
        <ele>486.8</ele>
        <time>2021-09-19T08:52:22Z</time>
      </trkpt>
      <trkpt lat="43.95857" lon="5.13376">
        <ele>488.5</ele>
        <time>2021-09-19T08:52:36Z</time>
      </trkpt>
      <trkpt lat="43.9585" lon="5.13354">
        <ele>489.9</ele>
        <time>2021-09-19T08:52:54Z</time>
      </trkpt>
      <trkpt lat="43.9584" lon="5.13326">
        <ele>491.3</ele>
        <time>2021-09-19T08:53:16Z</time>
      </trkpt>
      <trkpt lat="43.95829" lon="5.13294">
        <ele>493.1</ele>
        <time>2021-09-19T08:53:39Z</time>
      </trkpt>
      <trkpt lat="43.95817" lon="5.13268">
        <ele>494.7</ele>
        <time>2021-09-19T08:53:59Z</time>
      </trkpt>
      <trkpt lat="43.95807" lon="5.13251">
        <ele>495.6</ele>
        <time>2021-09-19T08:54:15Z</time>
      </trkpt>
      <trkpt lat="43.95805" lon="5.13249">
        <ele>495.7</ele>
        <time>2021-09-19T08:54:19Z</time>
      </trkpt>
      <trkpt lat="43.95802" lon="5.13234">
        <ele>496.2</ele>
        <time>2021-09-19T08:54:33Z</time>
      </trkpt>
      <trkpt lat="43.95795" lon="5.13222">
        <ele>496.6</ele>
        <time>2021-09-19T08:54:47Z</time>
      </trkpt>
      <trkpt lat="43.95788" lon="5.13226">
        <ele>496.6</ele>
        <time>2021-09-19T08:54:53Z</time>
      </trkpt>
      <trkpt lat="43.95774" lon="5.13248">
        <ele>496.5</ele>
        <time>2021-09-19T08:55:14Z</time>
      </trkpt>
      <trkpt lat="43.95771" lon="5.13257">
        <ele>496.3</ele>
        <time>2021-09-19T08:55:31Z</time>
      </trkpt>
      <trkpt lat="43.9577" lon="5.13257">
        <ele>496.4</ele>
        <time>2021-09-19T08:55:32Z</time>
      </trkpt>
      <trkpt lat="43.95752" lon="5.13264">
        <ele>496.8</ele>
        <time>2021-09-19T08:55:49Z</time>
      </trkpt>
      <trkpt lat="43.9575" lon="5.13267">
        <ele>496.8</ele>
        <time>2021-09-19T08:56:08Z</time>
      </trkpt>
      <trkpt lat="43.95748" lon="5.13265">
        <ele>497</ele>
        <time>2021-09-19T08:56:34Z</time>
      </trkpt>
      <trkpt lat="43.9574" lon="5.13266">
        <ele>497.9</ele>
        <time>2021-09-19T08:57:10Z</time>
      </trkpt>
      <trkpt lat="43.95724" lon="5.13265">
        <ele>499.5</ele>
        <time>2021-09-19T08:57:28Z</time>
      </trkpt>
      <trkpt lat="43.95709" lon="5.1327">
        <ele>501.2</ele>
        <time>2021-09-19T08:57:47Z</time>
      </trkpt>
      <trkpt lat="43.95697" lon="5.1328">
        <ele>502.6</ele>
        <time>2021-09-19T08:58:06Z</time>
      </trkpt>
      <trkpt lat="43.95686" lon="5.13295">
        <ele>504.3</ele>
        <time>2021-09-19T08:58:24Z</time>
      </trkpt>
      <trkpt lat="43.95673" lon="5.13312">
        <ele>506.4</ele>
        <time>2021-09-19T08:58:46Z</time>
      </trkpt>
      <trkpt lat="43.9566" lon="5.13322">
        <ele>508.2</ele>
        <time>2021-09-19T08:59:04Z</time>
      </trkpt>
      <trkpt lat="43.95656" lon="5.13325">
        <ele>508.6</ele>
        <time>2021-09-19T08:59:12Z</time>
      </trkpt>
      <trkpt lat="43.95641" lon="5.13345">
        <ele>510.8</ele>
        <time>2021-09-19T08:59:36Z</time>
      </trkpt>
      <trkpt lat="43.95626" lon="5.13359">
        <ele>512.8</ele>
        <time>2021-09-19T08:59:54Z</time>
      </trkpt>
      <trkpt lat="43.95613" lon="5.13379">
        <ele>515</ele>
        <time>2021-09-19T09:00:13Z</time>
      </trkpt>
      <trkpt lat="43.95607" lon="5.13398">
        <ele>516.4</ele>
        <time>2021-09-19T09:00:32Z</time>
      </trkpt>
      <trkpt lat="43.95602" lon="5.1342">
        <ele>517.9</ele>
        <time>2021-09-19T09:00:51Z</time>
      </trkpt>
      <trkpt lat="43.95591" lon="5.13444">
        <ele>520</ele>
        <time>2021-09-19T09:01:14Z</time>
      </trkpt>
      <trkpt lat="43.95584" lon="5.13464">
        <ele>521.6</ele>
        <time>2021-09-19T09:01:36Z</time>
      </trkpt>
      <trkpt lat="43.95574" lon="5.13484">
        <ele>522.7</ele>
        <time>2021-09-19T09:01:56Z</time>
      </trkpt>
      <trkpt lat="43.95567" lon="5.13506">
        <ele>523.9</ele>
        <time>2021-09-19T09:02:13Z</time>
      </trkpt>
      <trkpt lat="43.95562" lon="5.13527">
        <ele>525.2</ele>
        <time>2021-09-19T09:02:30Z</time>
      </trkpt>
      <trkpt lat="43.95558" lon="5.1354">
        <ele>526.1</ele>
        <time>2021-09-19T09:02:41Z</time>
      </trkpt>
      <trkpt lat="43.95551" lon="5.13559">
        <ele>527.7</ele>
        <time>2021-09-19T09:02:59Z</time>
      </trkpt>
      <trkpt lat="43.95542" lon="5.13578">
        <ele>529.6</ele>
        <time>2021-09-19T09:03:20Z</time>
      </trkpt>
      <trkpt lat="43.9553" lon="5.13591">
        <ele>531.7</ele>
        <time>2021-09-19T09:03:39Z</time>
      </trkpt>
      <trkpt lat="43.95528" lon="5.13591">
        <ele>531.9</ele>
        <time>2021-09-19T09:04:15Z</time>
      </trkpt>
      <trkpt lat="43.95527" lon="5.13592">
        <ele>532</ele>
        <time>2021-09-19T09:04:51Z</time>
      </trkpt>
      <trkpt lat="43.95523" lon="5.13596">
        <ele>532.7</ele>
        <time>2021-09-19T09:05:51Z</time>
      </trkpt>
      <trkpt lat="43.95521" lon="5.13616">
        <ele>534.4</ele>
        <time>2021-09-19T09:06:10Z</time>
      </trkpt>
      <trkpt lat="43.95517" lon="5.13633">
        <ele>536.2</ele>
        <time>2021-09-19T09:06:25Z</time>
      </trkpt>
      <trkpt lat="43.95514" lon="5.13647">
        <ele>537.6</ele>
        <time>2021-09-19T09:06:43Z</time>
      </trkpt>
      <trkpt lat="43.95514" lon="5.13647">
        <ele>537.6</ele>
        <time>2021-09-19T09:07:10Z</time>
      </trkpt>
      <trkpt lat="43.95515" lon="5.13648">
        <ele>537.6</ele>
        <time>2021-09-19T09:08:16Z</time>
      </trkpt>
      <trkpt lat="43.95513" lon="5.13662">
        <ele>538.9</ele>
        <time>2021-09-19T09:08:31Z</time>
      </trkpt>
      <trkpt lat="43.95509" lon="5.13684">
        <ele>541.5</ele>
        <time>2021-09-19T09:08:52Z</time>
      </trkpt>
      <trkpt lat="43.95506" lon="5.13701">
        <ele>543.5</ele>
        <time>2021-09-19T09:09:09Z</time>
      </trkpt>
      <trkpt lat="43.95503" lon="5.13722">
        <ele>545.9</ele>
        <time>2021-09-19T09:09:27Z</time>
      </trkpt>
      <trkpt lat="43.95498" lon="5.13743">
        <ele>548.1</ele>
        <time>2021-09-19T09:09:46Z</time>
      </trkpt>
      <trkpt lat="43.95494" lon="5.13758">
        <ele>549.5</ele>
        <time>2021-09-19T09:10:02Z</time>
      </trkpt>
      <trkpt lat="43.95493" lon="5.13777">
        <ele>552.2</ele>
        <time>2021-09-19T09:10:21Z</time>
      </trkpt>
      <trkpt lat="43.95488" lon="5.13797">
        <ele>554.4</ele>
        <time>2021-09-19T09:10:40Z</time>
      </trkpt>
      <trkpt lat="43.95483" lon="5.13814">
        <ele>556</ele>
        <time>2021-09-19T09:11:00Z</time>
      </trkpt>
      <trkpt lat="43.9548" lon="5.13823">
        <ele>556.7</ele>
        <time>2021-09-19T09:11:25Z</time>
      </trkpt>
      <trkpt lat="43.95485" lon="5.13835">
        <ele>559.4</ele>
        <time>2021-09-19T09:11:42Z</time>
      </trkpt>
      <trkpt lat="43.95494" lon="5.13844">
        <ele>562.4</ele>
        <time>2021-09-19T09:12:01Z</time>
      </trkpt>
      <trkpt lat="43.95504" lon="5.13848">
        <ele>563.1</ele>
        <time>2021-09-19T09:12:16Z</time>
      </trkpt>
      <trkpt lat="43.95508" lon="5.13847">
        <ele>562</ele>
        <time>2021-09-19T09:12:43Z</time>
      </trkpt>
      <trkpt lat="43.95507" lon="5.13846">
        <ele>562.1</ele>
        <time>2021-09-19T09:13:31Z</time>
      </trkpt>
      <trkpt lat="43.95508" lon="5.13846">
        <ele>561.9</ele>
        <time>2021-09-19T09:14:07Z</time>
      </trkpt>
      <trkpt lat="43.95508" lon="5.13846">
        <ele>561.9</ele>
        <time>2021-09-19T09:15:17Z</time>
      </trkpt>
      <trkpt lat="43.95507" lon="5.13846">
        <ele>562.1</ele>
        <time>2021-09-19T09:16:09Z</time>
      </trkpt>
      <trkpt lat="43.95507" lon="5.13847">
        <ele>562.3</ele>
        <time>2021-09-19T09:16:52Z</time>
      </trkpt>
      <trkpt lat="43.9551" lon="5.13854">
        <ele>562.5</ele>
        <time>2021-09-19T09:17:14Z</time>
      </trkpt>
      <trkpt lat="43.95514" lon="5.13869">
        <ele>563.6</ele>
        <time>2021-09-19T09:17:30Z</time>
      </trkpt>
      <trkpt lat="43.95516" lon="5.1389">
        <ele>566.1</ele>
        <time>2021-09-19T09:17:48Z</time>
      </trkpt>
      <trkpt lat="43.95512" lon="5.13913">
        <ele>570.3</ele>
        <time>2021-09-19T09:18:16Z</time>
      </trkpt>
      <trkpt lat="43.95507" lon="5.13931">
        <ele>574.1</ele>
        <time>2021-09-19T09:18:34Z</time>
      </trkpt>
      <trkpt lat="43.95499" lon="5.13944">
        <ele>577.5</ele>
        <time>2021-09-19T09:18:53Z</time>
      </trkpt>
      <trkpt lat="43.95488" lon="5.1395">
        <ele>576.9</ele>
        <time>2021-09-19T09:19:12Z</time>
      </trkpt>
      <trkpt lat="43.9548" lon="5.13959">
        <ele>577.3</ele>
        <time>2021-09-19T09:19:27Z</time>
      </trkpt>
      <trkpt lat="43.95476" lon="5.13975">
        <ele>579.5</ele>
        <time>2021-09-19T09:19:47Z</time>
      </trkpt>
      <trkpt lat="43.95474" lon="5.13993">
        <ele>582.3</ele>
        <time>2021-09-19T09:20:07Z</time>
      </trkpt>
      <trkpt lat="43.95472" lon="5.14013">
        <ele>585.6</ele>
        <time>2021-09-19T09:20:25Z</time>
      </trkpt>
      <trkpt lat="43.95473" lon="5.14029">
        <ele>588.4</ele>
        <time>2021-09-19T09:20:45Z</time>
      </trkpt>
      <trkpt lat="43.95478" lon="5.14047">
        <ele>591.6</ele>
        <time>2021-09-19T09:21:08Z</time>
      </trkpt>
      <trkpt lat="43.95475" lon="5.14057">
        <ele>593.2</ele>
        <time>2021-09-19T09:21:33Z</time>
      </trkpt>
      <trkpt lat="43.95467" lon="5.1407">
        <ele>595.3</ele>
        <time>2021-09-19T09:21:51Z</time>
      </trkpt>
      <trkpt lat="43.95463" lon="5.14075">
        <ele>596.1</ele>
        <time>2021-09-19T09:22:06Z</time>
      </trkpt>
      <trkpt lat="43.95462" lon="5.14081">
        <ele>597.1</ele>
        <time>2021-09-19T09:22:24Z</time>
      </trkpt>
      <trkpt lat="43.95459" lon="5.14084">
        <ele>597.7</ele>
        <time>2021-09-19T09:23:08Z</time>
      </trkpt>
      <trkpt lat="43.95458" lon="5.14088">
        <ele>598.7</ele>
        <time>2021-09-19T09:23:31Z</time>
      </trkpt>
      <trkpt lat="43.95454" lon="5.14098">
        <ele>601.2</ele>
        <time>2021-09-19T09:23:48Z</time>
      </trkpt>
      <trkpt lat="43.95447" lon="5.14114">
        <ele>605.1</ele>
        <time>2021-09-19T09:24:08Z</time>
      </trkpt>
      <trkpt lat="43.95442" lon="5.14126">
        <ele>608</ele>
        <time>2021-09-19T09:24:23Z</time>
      </trkpt>
      <trkpt lat="43.95436" lon="5.1414">
        <ele>611.3</ele>
        <time>2021-09-19T09:24:43Z</time>
      </trkpt>
      <trkpt lat="43.95428" lon="5.14151">
        <ele>613.7</ele>
        <time>2021-09-19T09:25:02Z</time>
      </trkpt>
      <trkpt lat="43.95425" lon="5.14155">
        <ele>614.6</ele>
        <time>2021-09-19T09:25:23Z</time>
      </trkpt>
      <trkpt lat="43.95418" lon="5.14164">
        <ele>616.4</ele>
        <time>2021-09-19T09:25:42Z</time>
      </trkpt>
      <trkpt lat="43.95412" lon="5.14178">
        <ele>618.8</ele>
        <time>2021-09-19T09:26:01Z</time>
      </trkpt>
      <trkpt lat="43.95406" lon="5.14192">
        <ele>621.2</ele>
        <time>2021-09-19T09:26:21Z</time>
      </trkpt>
      <trkpt lat="43.95396" lon="5.14205">
        <ele>623.3</ele>
        <time>2021-09-19T09:26:43Z</time>
      </trkpt>
      <trkpt lat="43.95387" lon="5.14213">
        <ele>624.5</ele>
        <time>2021-09-19T09:27:01Z</time>
      </trkpt>
      <trkpt lat="43.95385" lon="5.14226">
        <ele>627.5</ele>
        <time>2021-09-19T09:27:22Z</time>
      </trkpt>
      <trkpt lat="43.95395" lon="5.14229">
        <ele>628.7</ele>
        <time>2021-09-19T09:27:43Z</time>
      </trkpt>
      <trkpt lat="43.95406" lon="5.14233">
        <ele>630.1</ele>
        <time>2021-09-19T09:28:01Z</time>
      </trkpt>
      <trkpt lat="43.95416" lon="5.14246">
        <ele>633.2</ele>
        <time>2021-09-19T09:28:22Z</time>
      </trkpt>
      <trkpt lat="43.95417" lon="5.14251">
        <ele>634</ele>
        <time>2021-09-19T09:28:43Z</time>
      </trkpt>
      <trkpt lat="43.95415" lon="5.14251">
        <ele>634</ele>
        <time>2021-09-19T09:29:39Z</time>
      </trkpt>
      <trkpt lat="43.95413" lon="5.14253">
        <ele>634</ele>
        <time>2021-09-19T09:30:19Z</time>
      </trkpt>
      <trkpt lat="43.95406" lon="5.14258">
        <ele>634.1</ele>
        <time>2021-09-19T09:30:40Z</time>
      </trkpt>
      <trkpt lat="43.95405" lon="5.14271">
        <ele>634.6</ele>
        <time>2021-09-19T09:30:57Z</time>
      </trkpt>
      <trkpt lat="43.95391" lon="5.14281">
        <ele>635.4</ele>
        <time>2021-09-19T09:31:23Z</time>
      </trkpt>
      <trkpt lat="43.95377" lon="5.14296">
        <ele>637</ele>
        <time>2021-09-19T09:31:45Z</time>
      </trkpt>
      <trkpt lat="43.95364" lon="5.14311">
        <ele>639.3</ele>
        <time>2021-09-19T09:32:01Z</time>
      </trkpt>
      <trkpt lat="43.95358" lon="5.14326">
        <ele>641.5</ele>
        <time>2021-09-19T09:32:13Z</time>
      </trkpt>
      <trkpt lat="43.95352" lon="5.14338">
        <ele>643.2</ele>
        <time>2021-09-19T09:32:31Z</time>
      </trkpt>
      <trkpt lat="43.95338" lon="5.14362">
        <ele>645.6</ele>
        <time>2021-09-19T09:32:52Z</time>
      </trkpt>
      <trkpt lat="43.95326" lon="5.14385">
        <ele>646.8</ele>
        <time>2021-09-19T09:33:19Z</time>
      </trkpt>
      <trkpt lat="43.95313" lon="5.14405">
        <ele>648.3</ele>
        <time>2021-09-19T09:33:39Z</time>
      </trkpt>
      <trkpt lat="43.95303" lon="5.14423">
        <ele>650.3</ele>
        <time>2021-09-19T09:33:56Z</time>
      </trkpt>
      <trkpt lat="43.95291" lon="5.14432">
        <ele>651.7</ele>
        <time>2021-09-19T09:34:14Z</time>
      </trkpt>
      <trkpt lat="43.95277" lon="5.1445">
        <ele>653.8</ele>
        <time>2021-09-19T09:34:35Z</time>
      </trkpt>
      <trkpt lat="43.95275" lon="5.14476">
        <ele>655.7</ele>
        <time>2021-09-19T09:34:59Z</time>
      </trkpt>
      <trkpt lat="43.95285" lon="5.14503">
        <ele>657.3</ele>
        <time>2021-09-19T09:35:24Z</time>
      </trkpt>
      <trkpt lat="43.95286" lon="5.14505">
        <ele>657.4</ele>
        <time>2021-09-19T09:35:27Z</time>
      </trkpt>
      <trkpt lat="43.95293" lon="5.1452">
        <ele>657.9</ele>
        <time>2021-09-19T09:35:42Z</time>
      </trkpt>
      <trkpt lat="43.953" lon="5.14534">
        <ele>658.5</ele>
        <time>2021-09-19T09:35:59Z</time>
      </trkpt>
      <trkpt lat="43.95301" lon="5.14535">
        <ele>658.6</ele>
        <time>2021-09-19T09:36:29Z</time>
      </trkpt>
      <trkpt lat="43.95299" lon="5.14538">
        <ele>658.7</ele>
        <time>2021-09-19T09:37:46Z</time>
      </trkpt>
      <trkpt lat="43.95301" lon="5.14557">
        <ele>659.7</ele>
        <time>2021-09-19T09:38:14Z</time>
      </trkpt>
      <trkpt lat="43.95305" lon="5.14583">
        <ele>661</ele>
        <time>2021-09-19T09:38:30Z</time>
      </trkpt>
      <trkpt lat="43.95302" lon="5.14606">
        <ele>661.2</ele>
        <time>2021-09-19T09:38:46Z</time>
      </trkpt>
      <trkpt lat="43.95295" lon="5.14629">
        <ele>661.3</ele>
        <time>2021-09-19T09:39:03Z</time>
      </trkpt>
      <trkpt lat="43.95295" lon="5.14632">
        <ele>661.3</ele>
        <time>2021-09-19T09:39:05Z</time>
      </trkpt>
      <trkpt lat="43.95292" lon="5.14639">
        <ele>661.3</ele>
        <time>2021-09-19T09:39:10Z</time>
      </trkpt>
      <trkpt lat="43.95285" lon="5.1466">
        <ele>661.4</ele>
        <time>2021-09-19T09:39:25Z</time>
      </trkpt>
      <trkpt lat="43.95284" lon="5.14664">
        <ele>661.4</ele>
        <time>2021-09-19T09:39:28Z</time>
      </trkpt>
      <trkpt lat="43.95283" lon="5.14669">
        <ele>661.4</ele>
        <time>2021-09-19T09:39:32Z</time>
      </trkpt>
      <trkpt lat="43.95275" lon="5.14687">
        <ele>661.1</ele>
        <time>2021-09-19T09:39:49Z</time>
      </trkpt>
      <trkpt lat="43.95277" lon="5.14692">
        <ele>661.1</ele>
        <time>2021-09-19T09:40:28Z</time>
      </trkpt>
      <trkpt lat="43.95276" lon="5.14694">
        <ele>661.1</ele>
        <time>2021-09-19T09:41:01Z</time>
      </trkpt>
      <trkpt lat="43.95274" lon="5.14691">
        <ele>661.1</ele>
        <time>2021-09-19T09:41:36Z</time>
      </trkpt>
      <trkpt lat="43.95272" lon="5.14694">
        <ele>661</ele>
        <time>2021-09-19T09:42:03Z</time>
      </trkpt>
      <trkpt lat="43.95271" lon="5.14692">
        <ele>661</ele>
        <time>2021-09-19T09:42:23Z</time>
      </trkpt>
      <trkpt lat="43.95273" lon="5.14699">
        <ele>661</ele>
        <time>2021-09-19T09:42:31Z</time>
      </trkpt>
      <trkpt lat="43.95272" lon="5.14726">
        <ele>660.7</ele>
        <time>2021-09-19T09:42:48Z</time>
      </trkpt>
      <trkpt lat="43.95265" lon="5.1475">
        <ele>660.4</ele>
        <time>2021-09-19T09:43:04Z</time>
      </trkpt>
      <trkpt lat="43.95263" lon="5.14768">
        <ele>659.8</ele>
        <time>2021-09-19T09:43:19Z</time>
      </trkpt>
      <trkpt lat="43.95256" lon="5.14794">
        <ele>659</ele>
        <time>2021-09-19T09:43:36Z</time>
      </trkpt>
      <trkpt lat="43.95251" lon="5.14822">
        <ele>658.3</ele>
        <time>2021-09-19T09:43:53Z</time>
      </trkpt>
      <trkpt lat="43.95246" lon="5.14841">
        <ele>657.9</ele>
        <time>2021-09-19T09:44:06Z</time>
      </trkpt>
      <trkpt lat="43.95235" lon="5.14872">
        <ele>657.2</ele>
        <time>2021-09-19T09:44:26Z</time>
      </trkpt>
      <trkpt lat="43.95226" lon="5.14897">
        <ele>656.5</ele>
        <time>2021-09-19T09:44:43Z</time>
      </trkpt>
      <trkpt lat="43.95225" lon="5.14905">
        <ele>656.3</ele>
        <time>2021-09-19T09:44:49Z</time>
      </trkpt>
      <trkpt lat="43.95223" lon="5.14936">
        <ele>655.5</ele>
        <time>2021-09-19T09:45:10Z</time>
      </trkpt>
      <trkpt lat="43.95222" lon="5.14939">
        <ele>655.5</ele>
        <time>2021-09-19T09:45:13Z</time>
      </trkpt>
      <trkpt lat="43.9522" lon="5.14946">
        <ele>655.3</ele>
        <time>2021-09-19T09:45:17Z</time>
      </trkpt>
      <trkpt lat="43.95212" lon="5.14959">
        <ele>654.8</ele>
        <time>2021-09-19T09:45:28Z</time>
      </trkpt>
      <trkpt lat="43.95206" lon="5.14963">
        <ele>654.6</ele>
        <time>2021-09-19T09:45:34Z</time>
      </trkpt>
      <trkpt lat="43.9519" lon="5.1498">
        <ele>653.6</ele>
        <time>2021-09-19T09:45:52Z</time>
      </trkpt>
      <trkpt lat="43.95174" lon="5.15006">
        <ele>652.1</ele>
        <time>2021-09-19T09:46:12Z</time>
      </trkpt>
      <trkpt lat="43.95171" lon="5.15012">
        <ele>651.9</ele>
        <time>2021-09-19T09:46:18Z</time>
      </trkpt>
      <trkpt lat="43.95155" lon="5.15039">
        <ele>651.1</ele>
        <time>2021-09-19T09:46:40Z</time>
      </trkpt>
      <trkpt lat="43.95144" lon="5.15064">
        <ele>650.5</ele>
        <time>2021-09-19T09:46:58Z</time>
      </trkpt>
      <trkpt lat="43.95133" lon="5.15089">
        <ele>649.9</ele>
        <time>2021-09-19T09:47:16Z</time>
      </trkpt>
      <trkpt lat="43.9512" lon="5.15112">
        <ele>649.4</ele>
        <time>2021-09-19T09:47:34Z</time>
      </trkpt>
      <trkpt lat="43.95107" lon="5.15135">
        <ele>648.7</ele>
        <time>2021-09-19T09:47:53Z</time>
      </trkpt>
      <trkpt lat="43.95097" lon="5.15154">
        <ele>647.9</ele>
        <time>2021-09-19T09:48:07Z</time>
      </trkpt>
      <trkpt lat="43.95084" lon="5.15178">
        <ele>647</ele>
        <time>2021-09-19T09:48:25Z</time>
      </trkpt>
      <trkpt lat="43.95073" lon="5.15193">
        <ele>647.3</ele>
        <time>2021-09-19T09:48:45Z</time>
      </trkpt>
      <trkpt lat="43.95067" lon="5.15207">
        <ele>647.5</ele>
        <time>2021-09-19T09:49:09Z</time>
      </trkpt>
      <trkpt lat="43.95062" lon="5.15232">
        <ele>647.7</ele>
        <time>2021-09-19T09:49:26Z</time>
      </trkpt>
      <trkpt lat="43.95061" lon="5.15236">
        <ele>647.8</ele>
        <time>2021-09-19T09:49:30Z</time>
      </trkpt>
      <trkpt lat="43.9506" lon="5.15241">
        <ele>647.8</ele>
        <time>2021-09-19T09:49:33Z</time>
      </trkpt>
      <trkpt lat="43.95055" lon="5.15271">
        <ele>647.7</ele>
        <time>2021-09-19T09:49:52Z</time>
      </trkpt>
      <trkpt lat="43.95048" lon="5.15303">
        <ele>647.4</ele>
        <time>2021-09-19T09:50:13Z</time>
      </trkpt>
      <trkpt lat="43.95044" lon="5.1533">
        <ele>647</ele>
        <time>2021-09-19T09:50:30Z</time>
      </trkpt>
      <trkpt lat="43.95043" lon="5.15332">
        <ele>647</ele>
        <time>2021-09-19T09:50:32Z</time>
      </trkpt>
      <trkpt lat="43.95045" lon="5.15356">
        <ele>646.7</ele>
        <time>2021-09-19T09:50:47Z</time>
      </trkpt>
      <trkpt lat="43.95044" lon="5.15382">
        <ele>646.4</ele>
        <time>2021-09-19T09:51:03Z</time>
      </trkpt>
      <trkpt lat="43.95038" lon="5.15405">
        <ele>646.1</ele>
        <time>2021-09-19T09:51:19Z</time>
      </trkpt>
      <trkpt lat="43.95036" lon="5.15411">
        <ele>646</ele>
        <time>2021-09-19T09:51:23Z</time>
      </trkpt>
      <trkpt lat="43.95028" lon="5.1544">
        <ele>644.9</ele>
        <time>2021-09-19T09:51:40Z</time>
      </trkpt>
      <trkpt lat="43.95026" lon="5.15453">
        <ele>644.4</ele>
        <time>2021-09-19T09:51:54Z</time>
      </trkpt>
      <trkpt lat="43.95026" lon="5.15454">
        <ele>644.4</ele>
        <time>2021-09-19T09:51:55Z</time>
      </trkpt>
      <trkpt lat="43.95025" lon="5.15457">
        <ele>644.2</ele>
        <time>2021-09-19T09:51:57Z</time>
      </trkpt>
      <trkpt lat="43.95021" lon="5.15472">
        <ele>643.4</ele>
        <time>2021-09-19T09:52:06Z</time>
      </trkpt>
      <trkpt lat="43.95011" lon="5.15491">
        <ele>641.6</ele>
        <time>2021-09-19T09:52:23Z</time>
      </trkpt>
      <trkpt lat="43.95007" lon="5.15495">
        <ele>641</ele>
        <time>2021-09-19T09:52:27Z</time>
      </trkpt>
      <trkpt lat="43.95005" lon="5.15496">
        <ele>640.8</ele>
        <time>2021-09-19T09:52:29Z</time>
      </trkpt>
      <trkpt lat="43.94994" lon="5.15504">
        <ele>640.3</ele>
        <time>2021-09-19T09:52:40Z</time>
      </trkpt>
      <trkpt lat="43.94975" lon="5.15513">
        <ele>641.4</ele>
        <time>2021-09-19T09:52:58Z</time>
      </trkpt>
      <trkpt lat="43.9497" lon="5.15516">
        <ele>641.7</ele>
        <time>2021-09-19T09:53:03Z</time>
      </trkpt>
      <trkpt lat="43.94962" lon="5.15525">
        <ele>641.9</ele>
        <time>2021-09-19T09:53:09Z</time>
      </trkpt>
      <trkpt lat="43.94959" lon="5.15542">
        <ele>641.2</ele>
        <time>2021-09-19T09:53:21Z</time>
      </trkpt>
      <trkpt lat="43.94962" lon="5.15566">
        <ele>639.7</ele>
        <time>2021-09-19T09:53:38Z</time>
      </trkpt>
      <trkpt lat="43.94966" lon="5.15573">
        <ele>639</ele>
        <time>2021-09-19T09:54:00Z</time>
      </trkpt>
      <trkpt lat="43.94973" lon="5.15576">
        <ele>638.3</ele>
        <time>2021-09-19T09:54:44Z</time>
      </trkpt>
      <trkpt lat="43.94981" lon="5.15583">
        <ele>637.4</ele>
        <time>2021-09-19T09:55:00Z</time>
      </trkpt>
      <trkpt lat="43.94985" lon="5.15583">
        <ele>637.1</ele>
        <time>2021-09-19T09:55:25Z</time>
      </trkpt>
      <trkpt lat="43.94983" lon="5.15599">
        <ele>636.5</ele>
        <time>2021-09-19T09:55:39Z</time>
      </trkpt>
      <trkpt lat="43.94981" lon="5.1562">
        <ele>635.6</ele>
        <time>2021-09-19T09:55:56Z</time>
      </trkpt>
      <trkpt lat="43.94979" lon="5.15626">
        <ele>635.5</ele>
        <time>2021-09-19T09:56:26Z</time>
      </trkpt>
      <trkpt lat="43.94986" lon="5.15628">
        <ele>634.9</ele>
        <time>2021-09-19T09:56:54Z</time>
      </trkpt>
      <trkpt lat="43.9499" lon="5.15633">
        <ele>634.3</ele>
        <time>2021-09-19T09:56:59Z</time>
      </trkpt>
      <trkpt lat="43.95002" lon="5.15644">
        <ele>633.2</ele>
        <time>2021-09-19T09:57:14Z</time>
      </trkpt>
      <trkpt lat="43.95005" lon="5.15645">
        <ele>633.4</ele>
        <time>2021-09-19T09:57:17Z</time>
      </trkpt>
      <trkpt lat="43.95023" lon="5.1565">
        <ele>634.3</ele>
        <time>2021-09-19T09:57:33Z</time>
      </trkpt>
      <trkpt lat="43.95036" lon="5.1566">
        <ele>634.6</ele>
        <time>2021-09-19T09:57:46Z</time>
      </trkpt>
      <trkpt lat="43.95054" lon="5.15675">
        <ele>634.9</ele>
        <time>2021-09-19T09:58:05Z</time>
      </trkpt>
      <trkpt lat="43.95063" lon="5.15681">
        <ele>635.1</ele>
        <time>2021-09-19T09:58:21Z</time>
      </trkpt>
      <trkpt lat="43.95064" lon="5.15681">
        <ele>635.1</ele>
        <time>2021-09-19T09:58:22Z</time>
      </trkpt>
      <trkpt lat="43.95067" lon="5.15681">
        <ele>635.3</ele>
        <time>2021-09-19T09:58:24Z</time>
      </trkpt>
      <trkpt lat="43.95085" lon="5.15688">
        <ele>635.8</ele>
        <time>2021-09-19T09:58:41Z</time>
      </trkpt>
      <trkpt lat="43.95104" lon="5.15686">
        <ele>637</ele>
        <time>2021-09-19T09:58:56Z</time>
      </trkpt>
      <trkpt lat="43.95121" lon="5.1568">
        <ele>638.4</ele>
        <time>2021-09-19T09:59:12Z</time>
      </trkpt>
      <trkpt lat="43.95137" lon="5.15677">
        <ele>639.5</ele>
        <time>2021-09-19T09:59:27Z</time>
      </trkpt>
      <trkpt lat="43.95149" lon="5.15682">
        <ele>639.9</ele>
        <time>2021-09-19T09:59:38Z</time>
      </trkpt>
      <trkpt lat="43.95171" lon="5.15688">
        <ele>640.4</ele>
        <time>2021-09-19T09:59:56Z</time>
      </trkpt>
      <trkpt lat="43.95173" lon="5.15688">
        <ele>640.4</ele>
        <time>2021-09-19T09:59:58Z</time>
      </trkpt>
      <trkpt lat="43.95193" lon="5.15688">
        <ele>640.1</ele>
        <time>2021-09-19T10:00:14Z</time>
      </trkpt>
      <trkpt lat="43.95211" lon="5.15686">
        <ele>640.1</ele>
        <time>2021-09-19T10:00:31Z</time>
      </trkpt>
      <trkpt lat="43.95224" lon="5.15692">
        <ele>639.5</ele>
        <time>2021-09-19T10:00:48Z</time>
      </trkpt>
      <trkpt lat="43.95228" lon="5.15696">
        <ele>639.2</ele>
        <time>2021-09-19T10:00:55Z</time>
      </trkpt>
      <trkpt lat="43.9523" lon="5.15701">
        <ele>638.8</ele>
        <time>2021-09-19T10:00:59Z</time>
      </trkpt>
      <trkpt lat="43.95238" lon="5.15711">
        <ele>638</ele>
        <time>2021-09-19T10:01:18Z</time>
      </trkpt>
      <trkpt lat="43.9524" lon="5.15715">
        <ele>637.6</ele>
        <time>2021-09-19T10:01:37Z</time>
      </trkpt>
      <trkpt lat="43.95261" lon="5.15709">
        <ele>637.6</ele>
        <time>2021-09-19T10:01:56Z</time>
      </trkpt>
      <trkpt lat="43.95264" lon="5.15708">
        <ele>637.5</ele>
        <time>2021-09-19T10:01:58Z</time>
      </trkpt>
      <trkpt lat="43.95279" lon="5.15704">
        <ele>637.3</ele>
        <time>2021-09-19T10:02:12Z</time>
      </trkpt>
      <trkpt lat="43.95297" lon="5.15702">
        <ele>636.8</ele>
        <time>2021-09-19T10:02:34Z</time>
      </trkpt>
      <trkpt lat="43.95299" lon="5.15702">
        <ele>636.7</ele>
        <time>2021-09-19T10:02:36Z</time>
      </trkpt>
      <trkpt lat="43.95306" lon="5.15706">
        <ele>636.2</ele>
        <time>2021-09-19T10:02:54Z</time>
      </trkpt>
      <trkpt lat="43.95311" lon="5.15703">
        <ele>636.2</ele>
        <time>2021-09-19T10:03:04Z</time>
      </trkpt>
      <trkpt lat="43.95332" lon="5.15704">
        <ele>635.4</ele>
        <time>2021-09-19T10:03:25Z</time>
      </trkpt>
      <trkpt lat="43.95353" lon="5.15704">
        <ele>635.5</ele>
        <time>2021-09-19T10:03:45Z</time>
      </trkpt>
      <trkpt lat="43.95364" lon="5.15706">
        <ele>635.5</ele>
        <time>2021-09-19T10:04:01Z</time>
      </trkpt>
      <trkpt lat="43.95369" lon="5.15705">
        <ele>635.6</ele>
        <time>2021-09-19T10:04:15Z</time>
      </trkpt>
      <trkpt lat="43.95371" lon="5.15706">
        <ele>635.6</ele>
        <time>2021-09-19T10:04:18Z</time>
      </trkpt>
      <trkpt lat="43.95389" lon="5.15711">
        <ele>635.5</ele>
        <time>2021-09-19T10:04:36Z</time>
      </trkpt>
      <trkpt lat="43.95403" lon="5.1571">
        <ele>635.7</ele>
        <time>2021-09-19T10:04:49Z</time>
      </trkpt>
      <trkpt lat="43.95405" lon="5.1571">
        <ele>635.8</ele>
        <time>2021-09-19T10:04:51Z</time>
      </trkpt>
      <trkpt lat="43.95424" lon="5.15713">
        <ele>635.9</ele>
        <time>2021-09-19T10:05:08Z</time>
      </trkpt>
      <trkpt lat="43.95443" lon="5.15715">
        <ele>636.1</ele>
        <time>2021-09-19T10:05:25Z</time>
      </trkpt>
      <trkpt lat="43.95463" lon="5.15722">
        <ele>636.1</ele>
        <time>2021-09-19T10:05:41Z</time>
      </trkpt>
      <trkpt lat="43.95481" lon="5.1574">
        <ele>635.3</ele>
        <time>2021-09-19T10:06:02Z</time>
      </trkpt>
      <trkpt lat="43.95488" lon="5.15749">
        <ele>634.9</ele>
        <time>2021-09-19T10:06:16Z</time>
      </trkpt>
      <trkpt lat="43.9549" lon="5.15752">
        <ele>634.8</ele>
        <time>2021-09-19T10:06:19Z</time>
      </trkpt>
      <trkpt lat="43.95498" lon="5.15789">
        <ele>633.6</ele>
        <time>2021-09-19T10:06:43Z</time>
      </trkpt>
      <trkpt lat="43.95495" lon="5.15823">
        <ele>632.3</ele>
        <time>2021-09-19T10:07:07Z</time>
      </trkpt>
      <trkpt lat="43.95493" lon="5.1583">
        <ele>632</ele>
        <time>2021-09-19T10:07:24Z</time>
      </trkpt>
      <trkpt lat="43.9549" lon="5.15826">
        <ele>632</ele>
        <time>2021-09-19T10:07:43Z</time>
      </trkpt>
      <trkpt lat="43.95494" lon="5.15827">
        <ele>632.1</ele>
        <time>2021-09-19T10:07:57Z</time>
      </trkpt>
      <trkpt lat="43.95497" lon="5.15825">
        <ele>632.2</ele>
        <time>2021-09-19T10:08:07Z</time>
      </trkpt>
      <trkpt lat="43.95496" lon="5.15835">
        <ele>631.9</ele>
        <time>2021-09-19T10:08:23Z</time>
      </trkpt>
      <trkpt lat="43.95495" lon="5.15839">
        <ele>631.9</ele>
        <time>2021-09-19T10:08:26Z</time>
      </trkpt>
      <trkpt lat="43.95482" lon="5.15871">
        <ele>631.5</ele>
        <time>2021-09-19T10:08:46Z</time>
      </trkpt>
      <trkpt lat="43.95472" lon="5.15899">
        <ele>631.1</ele>
        <time>2021-09-19T10:09:05Z</time>
      </trkpt>
      <trkpt lat="43.95466" lon="5.15923">
        <ele>631</ele>
        <time>2021-09-19T10:09:23Z</time>
      </trkpt>
      <trkpt lat="43.9546" lon="5.15954">
        <ele>631.9</ele>
        <time>2021-09-19T10:09:44Z</time>
      </trkpt>
      <trkpt lat="43.95458" lon="5.1597">
        <ele>632.4</ele>
        <time>2021-09-19T10:10:02Z</time>
      </trkpt>
      <trkpt lat="43.95458" lon="5.15973">
        <ele>632.5</ele>
        <time>2021-09-19T10:10:04Z</time>
      </trkpt>
      <trkpt lat="43.95454" lon="5.15998">
        <ele>633.3</ele>
        <time>2021-09-19T10:10:19Z</time>
      </trkpt>
      <trkpt lat="43.95457" lon="5.16025">
        <ele>633.3</ele>
        <time>2021-09-19T10:10:37Z</time>
      </trkpt>
      <trkpt lat="43.95473" lon="5.16048">
        <ele>633.6</ele>
        <time>2021-09-19T10:10:59Z</time>
      </trkpt>
      <trkpt lat="43.95487" lon="5.16071">
        <ele>633.8</ele>
        <time>2021-09-19T10:11:19Z</time>
      </trkpt>
      <trkpt lat="43.95499" lon="5.16099">
        <ele>633.8</ele>
        <time>2021-09-19T10:11:40Z</time>
      </trkpt>
      <trkpt lat="43.95513" lon="5.16126">
        <ele>634</ele>
        <time>2021-09-19T10:12:03Z</time>
      </trkpt>
      <trkpt lat="43.95525" lon="5.16146">
        <ele>634.1</ele>
        <time>2021-09-19T10:12:20Z</time>
      </trkpt>
      <trkpt lat="43.95537" lon="5.16164">
        <ele>634.4</ele>
        <time>2021-09-19T10:12:37Z</time>
      </trkpt>
      <trkpt lat="43.95538" lon="5.16166">
        <ele>634.4</ele>
        <time>2021-09-19T10:12:39Z</time>
      </trkpt>
      <trkpt lat="43.9555" lon="5.16194">
        <ele>634.1</ele>
        <time>2021-09-19T10:12:58Z</time>
      </trkpt>
      <trkpt lat="43.95567" lon="5.16206">
        <ele>634.2</ele>
        <time>2021-09-19T10:13:18Z</time>
      </trkpt>
      <trkpt lat="43.95576" lon="5.16213">
        <ele>634.2</ele>
        <time>2021-09-19T10:13:31Z</time>
      </trkpt>
      <trkpt lat="43.95584" lon="5.16223">
        <ele>634</ele>
        <time>2021-09-19T10:13:41Z</time>
      </trkpt>
      <trkpt lat="43.95588" lon="5.16228">
        <ele>633.7</ele>
        <time>2021-09-19T10:13:46Z</time>
      </trkpt>
      <trkpt lat="43.95599" lon="5.16253">
        <ele>632.3</ele>
        <time>2021-09-19T10:14:05Z</time>
      </trkpt>
      <trkpt lat="43.95606" lon="5.1628">
        <ele>629.2</ele>
        <time>2021-09-19T10:14:24Z</time>
      </trkpt>
      <trkpt lat="43.95618" lon="5.16301">
        <ele>626.7</ele>
        <time>2021-09-19T10:14:45Z</time>
      </trkpt>
      <trkpt lat="43.95632" lon="5.16323">
        <ele>623.9</ele>
        <time>2021-09-19T10:15:08Z</time>
      </trkpt>
      <trkpt lat="43.95648" lon="5.16339">
        <ele>621.9</ele>
        <time>2021-09-19T10:15:28Z</time>
      </trkpt>
      <trkpt lat="43.95649" lon="5.16342">
        <ele>621.7</ele>
        <time>2021-09-19T10:15:32Z</time>
      </trkpt>
      <trkpt lat="43.95653" lon="5.16347">
        <ele>621.1</ele>
        <time>2021-09-19T10:15:37Z</time>
      </trkpt>
      <trkpt lat="43.95655" lon="5.16349">
        <ele>620.9</ele>
        <time>2021-09-19T10:15:40Z</time>
      </trkpt>
      <trkpt lat="43.95658" lon="5.16357">
        <ele>620.2</ele>
        <time>2021-09-19T10:15:46Z</time>
      </trkpt>
      <trkpt lat="43.95652" lon="5.16389">
        <ele>617.4</ele>
        <time>2021-09-19T10:16:07Z</time>
      </trkpt>
      <trkpt lat="43.95643" lon="5.1641">
        <ele>615.6</ele>
        <time>2021-09-19T10:16:25Z</time>
      </trkpt>
      <trkpt lat="43.95642" lon="5.16414">
        <ele>615.2</ele>
        <time>2021-09-19T10:16:28Z</time>
      </trkpt>
      <trkpt lat="43.95641" lon="5.16421">
        <ele>614.8</ele>
        <time>2021-09-19T10:16:32Z</time>
      </trkpt>
      <trkpt lat="43.95639" lon="5.16441">
        <ele>613.7</ele>
        <time>2021-09-19T10:16:44Z</time>
      </trkpt>
      <trkpt lat="43.95637" lon="5.16448">
        <ele>613.4</ele>
        <time>2021-09-19T10:16:48Z</time>
      </trkpt>
      <trkpt lat="43.95636" lon="5.16451">
        <ele>613.2</ele>
        <time>2021-09-19T10:16:50Z</time>
      </trkpt>
      <trkpt lat="43.95635" lon="5.16456">
        <ele>612.9</ele>
        <time>2021-09-19T10:16:53Z</time>
      </trkpt>
      <trkpt lat="43.95633" lon="5.16486">
        <ele>611.3</ele>
        <time>2021-09-19T10:17:13Z</time>
      </trkpt>
      <trkpt lat="43.9563" lon="5.16511">
        <ele>610.3</ele>
        <time>2021-09-19T10:17:29Z</time>
      </trkpt>
      <trkpt lat="43.95629" lon="5.16517">
        <ele>610.2</ele>
        <time>2021-09-19T10:17:32Z</time>
      </trkpt>
      <trkpt lat="43.95624" lon="5.16541">
        <ele>609.5</ele>
        <time>2021-09-19T10:17:46Z</time>
      </trkpt>
      <trkpt lat="43.95609" lon="5.16566">
        <ele>608.4</ele>
        <time>2021-09-19T10:18:03Z</time>
      </trkpt>
      <trkpt lat="43.95598" lon="5.16585">
        <ele>607.5</ele>
        <time>2021-09-19T10:18:19Z</time>
      </trkpt>
      <trkpt lat="43.95595" lon="5.16588">
        <ele>607.4</ele>
        <time>2021-09-19T10:18:22Z</time>
      </trkpt>
      <trkpt lat="43.95587" lon="5.16602">
        <ele>607.1</ele>
        <time>2021-09-19T10:18:36Z</time>
      </trkpt>
      <trkpt lat="43.95582" lon="5.16609">
        <ele>606.9</ele>
        <time>2021-09-19T10:18:59Z</time>
      </trkpt>
      <trkpt lat="43.95585" lon="5.16614">
        <ele>607.1</ele>
        <time>2021-09-19T10:19:45Z</time>
      </trkpt>
      <trkpt lat="43.95593" lon="5.16614">
        <ele>607.4</ele>
        <time>2021-09-19T10:20:08Z</time>
      </trkpt>
      <trkpt lat="43.95598" lon="5.16618">
        <ele>607.6</ele>
        <time>2021-09-19T10:20:37Z</time>
      </trkpt>
      <trkpt lat="43.95604" lon="5.16619">
        <ele>607.9</ele>
        <time>2021-09-19T10:20:46Z</time>
      </trkpt>
      <trkpt lat="43.95619" lon="5.16616">
        <ele>608.5</ele>
        <time>2021-09-19T10:21:03Z</time>
      </trkpt>
      <trkpt lat="43.95634" lon="5.16614">
        <ele>609</ele>
        <time>2021-09-19T10:21:18Z</time>
      </trkpt>
      <trkpt lat="43.95648" lon="5.16606">
        <ele>609.5</ele>
        <time>2021-09-19T10:21:30Z</time>
      </trkpt>
      <trkpt lat="43.95657" lon="5.16601">
        <ele>609.8</ele>
        <time>2021-09-19T10:21:40Z</time>
      </trkpt>
      <trkpt lat="43.9566" lon="5.16598">
        <ele>609.9</ele>
        <time>2021-09-19T10:21:43Z</time>
      </trkpt>
      <trkpt lat="43.95673" lon="5.16586">
        <ele>610</ele>
        <time>2021-09-19T10:21:59Z</time>
      </trkpt>
      <trkpt lat="43.95691" lon="5.16572">
        <ele>610.1</ele>
        <time>2021-09-19T10:22:18Z</time>
      </trkpt>
      <trkpt lat="43.95703" lon="5.16562">
        <ele>610.1</ele>
        <time>2021-09-19T10:22:31Z</time>
      </trkpt>
      <trkpt lat="43.95716" lon="5.16552">
        <ele>610.2</ele>
        <time>2021-09-19T10:22:43Z</time>
      </trkpt>
      <trkpt lat="43.95733" lon="5.16547">
        <ele>610.1</ele>
        <time>2021-09-19T10:23:00Z</time>
      </trkpt>
      <trkpt lat="43.95734" lon="5.16547">
        <ele>610.1</ele>
        <time>2021-09-19T10:23:01Z</time>
      </trkpt>
      <trkpt lat="43.95751" lon="5.16537">
        <ele>609.9</ele>
        <time>2021-09-19T10:23:17Z</time>
      </trkpt>
      <trkpt lat="43.95764" lon="5.16521">
        <ele>608.7</ele>
        <time>2021-09-19T10:23:30Z</time>
      </trkpt>
      <trkpt lat="43.95775" lon="5.16511">
        <ele>607.6</ele>
        <time>2021-09-19T10:23:41Z</time>
      </trkpt>
      <trkpt lat="43.95783" lon="5.16506">
        <ele>606.9</ele>
        <time>2021-09-19T10:23:51Z</time>
      </trkpt>
      <trkpt lat="43.9579" lon="5.16501">
        <ele>606.2</ele>
        <time>2021-09-19T10:24:01Z</time>
      </trkpt>
      <trkpt lat="43.95793" lon="5.16499">
        <ele>605.9</ele>
        <time>2021-09-19T10:24:03Z</time>
      </trkpt>
      <trkpt lat="43.95804" lon="5.16489">
        <ele>605</ele>
        <time>2021-09-19T10:24:18Z</time>
      </trkpt>
      <trkpt lat="43.95814" lon="5.16482">
        <ele>604.2</ele>
        <time>2021-09-19T10:24:27Z</time>
      </trkpt>
      <trkpt lat="43.9583" lon="5.16469">
        <ele>603</ele>
        <time>2021-09-19T10:24:44Z</time>
      </trkpt>
      <trkpt lat="43.95836" lon="5.16462">
        <ele>602.7</ele>
        <time>2021-09-19T10:24:51Z</time>
      </trkpt>
      <trkpt lat="43.9584" lon="5.16453">
        <ele>602.5</ele>
        <time>2021-09-19T10:24:58Z</time>
      </trkpt>
      <trkpt lat="43.95846" lon="5.16434">
        <ele>602.3</ele>
        <time>2021-09-19T10:25:12Z</time>
      </trkpt>
      <trkpt lat="43.95858" lon="5.16426">
        <ele>601.2</ele>
        <time>2021-09-19T10:25:25Z</time>
      </trkpt>
      <trkpt lat="43.95871" lon="5.16419">
        <ele>599.9</ele>
        <time>2021-09-19T10:25:40Z</time>
      </trkpt>
      <trkpt lat="43.95888" lon="5.16408">
        <ele>598.8</ele>
        <time>2021-09-19T10:25:57Z</time>
      </trkpt>
      <trkpt lat="43.95897" lon="5.16402">
        <ele>598.3</ele>
        <time>2021-09-19T10:26:05Z</time>
      </trkpt>
      <trkpt lat="43.95901" lon="5.16399">
        <ele>598.1</ele>
        <time>2021-09-19T10:26:09Z</time>
      </trkpt>
      <trkpt lat="43.95914" lon="5.16387">
        <ele>597.8</ele>
        <time>2021-09-19T10:26:22Z</time>
      </trkpt>
      <trkpt lat="43.95927" lon="5.16378">
        <ele>597.2</ele>
        <time>2021-09-19T10:26:35Z</time>
      </trkpt>
      <trkpt lat="43.95942" lon="5.16369">
        <ele>596.4</ele>
        <time>2021-09-19T10:26:49Z</time>
      </trkpt>
      <trkpt lat="43.95957" lon="5.16363">
        <ele>595.5</ele>
        <time>2021-09-19T10:27:05Z</time>
      </trkpt>
      <trkpt lat="43.95973" lon="5.16359">
        <ele>594.2</ele>
        <time>2021-09-19T10:27:21Z</time>
      </trkpt>
      <trkpt lat="43.95989" lon="5.16354">
        <ele>593.1</ele>
        <time>2021-09-19T10:27:35Z</time>
      </trkpt>
      <trkpt lat="43.96005" lon="5.16345">
        <ele>592.7</ele>
        <time>2021-09-19T10:27:50Z</time>
      </trkpt>
      <trkpt lat="43.96021" lon="5.16342">
        <ele>592.6</ele>
        <time>2021-09-19T10:28:06Z</time>
      </trkpt>
      <trkpt lat="43.96038" lon="5.16337">
        <ele>592.7</ele>
        <time>2021-09-19T10:28:22Z</time>
      </trkpt>
      <trkpt lat="43.96047" lon="5.16336">
        <ele>592.5</ele>
        <time>2021-09-19T10:28:31Z</time>
      </trkpt>
      <trkpt lat="43.9605" lon="5.16334">
        <ele>592.7</ele>
        <time>2021-09-19T10:28:36Z</time>
      </trkpt>
      <trkpt lat="43.96056" lon="5.16332">
        <ele>592.8</ele>
        <time>2021-09-19T10:28:43Z</time>
      </trkpt>
      <trkpt lat="43.96068" lon="5.16329">
        <ele>592.8</ele>
        <time>2021-09-19T10:28:54Z</time>
      </trkpt>
      <trkpt lat="43.96077" lon="5.16331">
        <ele>592.4</ele>
        <time>2021-09-19T10:29:02Z</time>
      </trkpt>
      <trkpt lat="43.96105" lon="5.16338">
        <ele>590.1</ele>
        <time>2021-09-19T10:29:27Z</time>
      </trkpt>
      <trkpt lat="43.96124" lon="5.1633">
        <ele>589.8</ele>
        <time>2021-09-19T10:29:47Z</time>
      </trkpt>
      <trkpt lat="43.96133" lon="5.16327">
        <ele>589.4</ele>
        <time>2021-09-19T10:30:05Z</time>
      </trkpt>
      <trkpt lat="43.96136" lon="5.16326">
        <ele>589.3</ele>
        <time>2021-09-19T10:30:11Z</time>
      </trkpt>
      <trkpt lat="43.96139" lon="5.16326">
        <ele>589.1</ele>
        <time>2021-09-19T10:30:14Z</time>
      </trkpt>
      <trkpt lat="43.96162" lon="5.16327">
        <ele>587.6</ele>
        <time>2021-09-19T10:30:35Z</time>
      </trkpt>
      <trkpt lat="43.96188" lon="5.16328">
        <ele>586.4</ele>
        <time>2021-09-19T10:30:59Z</time>
      </trkpt>
      <trkpt lat="43.96214" lon="5.16327">
        <ele>585.3</ele>
        <time>2021-09-19T10:31:22Z</time>
      </trkpt>
      <trkpt lat="43.96236" lon="5.16322">
        <ele>584.3</ele>
        <time>2021-09-19T10:31:43Z</time>
      </trkpt>
      <trkpt lat="43.96259" lon="5.16314">
        <ele>582.8</ele>
        <time>2021-09-19T10:32:06Z</time>
      </trkpt>
      <trkpt lat="43.96279" lon="5.16301">
        <ele>581</ele>
        <time>2021-09-19T10:32:28Z</time>
      </trkpt>
      <trkpt lat="43.96292" lon="5.16289">
        <ele>579.3</ele>
        <time>2021-09-19T10:32:45Z</time>
      </trkpt>
      <trkpt lat="43.96299" lon="5.16288">
        <ele>578.7</ele>
        <time>2021-09-19T10:32:51Z</time>
      </trkpt>
      <trkpt lat="43.96316" lon="5.16288">
        <ele>577.4</ele>
        <time>2021-09-19T10:33:09Z</time>
      </trkpt>
      <trkpt lat="43.96324" lon="5.16288">
        <ele>576.8</ele>
        <time>2021-09-19T10:33:29Z</time>
      </trkpt>
      <trkpt lat="43.96327" lon="5.16288">
        <ele>576.6</ele>
        <time>2021-09-19T10:34:08Z</time>
      </trkpt>
      <trkpt lat="43.9633" lon="5.16289">
        <ele>576.5</ele>
        <time>2021-09-19T10:34:23Z</time>
      </trkpt>
      <trkpt lat="43.96333" lon="5.1629">
        <ele>576.3</ele>
        <time>2021-09-19T10:34:26Z</time>
      </trkpt>
      <trkpt lat="43.96337" lon="5.16291">
        <ele>576.2</ele>
        <time>2021-09-19T10:34:30Z</time>
      </trkpt>
      <trkpt lat="43.96356" lon="5.16297">
        <ele>575.5</ele>
        <time>2021-09-19T10:34:48Z</time>
      </trkpt>
      <trkpt lat="43.96361" lon="5.16298">
        <ele>575.3</ele>
        <time>2021-09-19T10:35:03Z</time>
      </trkpt>
      <trkpt lat="43.96363" lon="5.16299">
        <ele>575.3</ele>
        <time>2021-09-19T10:35:10Z</time>
      </trkpt>
      <trkpt lat="43.96368" lon="5.163">
        <ele>575.2</ele>
        <time>2021-09-19T10:35:15Z</time>
      </trkpt>
      <trkpt lat="43.96388" lon="5.16303">
        <ele>574.3</ele>
        <time>2021-09-19T10:35:35Z</time>
      </trkpt>
      <trkpt lat="43.96409" lon="5.16305">
        <ele>573.4</ele>
        <time>2021-09-19T10:35:55Z</time>
      </trkpt>
      <trkpt lat="43.96411" lon="5.16305">
        <ele>573.2</ele>
        <time>2021-09-19T10:35:57Z</time>
      </trkpt>
      <trkpt lat="43.96414" lon="5.16306">
        <ele>573.2</ele>
        <time>2021-09-19T10:36:01Z</time>
      </trkpt>
      <trkpt lat="43.96419" lon="5.16305">
        <ele>572.7</ele>
        <time>2021-09-19T10:36:18Z</time>
      </trkpt>
      <trkpt lat="43.96421" lon="5.16306">
        <ele>572.8</ele>
        <time>2021-09-19T10:36:21Z</time>
      </trkpt>
      <trkpt lat="43.96428" lon="5.16306">
        <ele>572.2</ele>
        <time>2021-09-19T10:36:40Z</time>
      </trkpt>
      <trkpt lat="43.9643" lon="5.16307">
        <ele>572.2</ele>
        <time>2021-09-19T10:37:06Z</time>
      </trkpt>
      <trkpt lat="43.96434" lon="5.1631">
        <ele>572.5</ele>
        <time>2021-09-19T10:37:10Z</time>
      </trkpt>
      <trkpt lat="43.96455" lon="5.16312">
        <ele>571.3</ele>
        <time>2021-09-19T10:37:30Z</time>
      </trkpt>
      <trkpt lat="43.96479" lon="5.16317">
        <ele>570.4</ele>
        <time>2021-09-19T10:37:55Z</time>
      </trkpt>
      <trkpt lat="43.96503" lon="5.16324">
        <ele>570</ele>
        <time>2021-09-19T10:38:19Z</time>
      </trkpt>
      <trkpt lat="43.96527" lon="5.16322">
        <ele>568.4</ele>
        <time>2021-09-19T10:38:43Z</time>
      </trkpt>
      <trkpt lat="43.96549" lon="5.16324">
        <ele>567.5</ele>
        <time>2021-09-19T10:39:05Z</time>
      </trkpt>
      <trkpt lat="43.96563" lon="5.16323">
        <ele>566.6</ele>
        <time>2021-09-19T10:39:23Z</time>
      </trkpt>
      <trkpt lat="43.96575" lon="5.16322">
        <ele>565.8</ele>
        <time>2021-09-19T10:39:37Z</time>
      </trkpt>
      <trkpt lat="43.96581" lon="5.16321">
        <ele>565.3</ele>
        <time>2021-09-19T10:39:43Z</time>
      </trkpt>
      <trkpt lat="43.96607" lon="5.16317">
        <ele>563.6</ele>
        <time>2021-09-19T10:40:06Z</time>
      </trkpt>
      <trkpt lat="43.96628" lon="5.16314">
        <ele>562.3</ele>
        <time>2021-09-19T10:40:25Z</time>
      </trkpt>
      <trkpt lat="43.96648" lon="5.16309">
        <ele>561</ele>
        <time>2021-09-19T10:40:43Z</time>
      </trkpt>
      <trkpt lat="43.96672" lon="5.16304">
        <ele>560.1</ele>
        <time>2021-09-19T10:41:04Z</time>
      </trkpt>
      <trkpt lat="43.96691" lon="5.16293">
        <ele>560.4</ele>
        <time>2021-09-19T10:41:22Z</time>
      </trkpt>
      <trkpt lat="43.96711" lon="5.16273">
        <ele>560.4</ele>
        <time>2021-09-19T10:41:44Z</time>
      </trkpt>
      <trkpt lat="43.96724" lon="5.16255">
        <ele>560.4</ele>
        <time>2021-09-19T10:42:00Z</time>
      </trkpt>
      <trkpt lat="43.96735" lon="5.16246">
        <ele>560.5</ele>
        <time>2021-09-19T10:42:10Z</time>
      </trkpt>
      <trkpt lat="43.96753" lon="5.16235">
        <ele>560.5</ele>
        <time>2021-09-19T10:42:27Z</time>
      </trkpt>
      <trkpt lat="43.9677" lon="5.16223">
        <ele>559.5</ele>
        <time>2021-09-19T10:42:43Z</time>
      </trkpt>
      <trkpt lat="43.96796" lon="5.1621">
        <ele>558.7</ele>
        <time>2021-09-19T10:43:07Z</time>
      </trkpt>
      <trkpt lat="43.96815" lon="5.16209">
        <ele>558.8</ele>
        <time>2021-09-19T10:43:25Z</time>
      </trkpt>
      <trkpt lat="43.9683" lon="5.16208">
        <ele>558.9</ele>
        <time>2021-09-19T10:43:38Z</time>
      </trkpt>
      <trkpt lat="43.96834" lon="5.1621">
        <ele>559</ele>
        <time>2021-09-19T10:43:42Z</time>
      </trkpt>
      <trkpt lat="43.96857" lon="5.16218">
        <ele>558.3</ele>
        <time>2021-09-19T10:44:03Z</time>
      </trkpt>
      <trkpt lat="43.96873" lon="5.16223">
        <ele>557.8</ele>
        <time>2021-09-19T10:44:20Z</time>
      </trkpt>
      <trkpt lat="43.96895" lon="5.1623">
        <ele>557.1</ele>
        <time>2021-09-19T10:44:42Z</time>
      </trkpt>
      <trkpt lat="43.96897" lon="5.16231">
        <ele>557</ele>
        <time>2021-09-19T10:44:46Z</time>
      </trkpt>
      <trkpt lat="43.96921" lon="5.16237">
        <ele>555.5</ele>
        <time>2021-09-19T10:45:09Z</time>
      </trkpt>
      <trkpt lat="43.96937" lon="5.16239">
        <ele>552.3</ele>
        <time>2021-09-19T10:45:26Z</time>
      </trkpt>
      <trkpt lat="43.96949" lon="5.16244">
        <ele>550.1</ele>
        <time>2021-09-19T10:45:45Z</time>
      </trkpt>
      <trkpt lat="43.96951" lon="5.16248">
        <ele>549.9</ele>
        <time>2021-09-19T10:46:12Z</time>
      </trkpt>
      <trkpt lat="43.96953" lon="5.16251">
        <ele>549.6</ele>
        <time>2021-09-19T10:46:33Z</time>
      </trkpt>
      <trkpt lat="43.96956" lon="5.16263">
        <ele>548.8</ele>
        <time>2021-09-19T10:46:52Z</time>
      </trkpt>
      <trkpt lat="43.96964" lon="5.16281">
        <ele>547</ele>
        <time>2021-09-19T10:47:12Z</time>
      </trkpt>
      <trkpt lat="43.96971" lon="5.16302">
        <ele>545.5</ele>
        <time>2021-09-19T10:47:30Z</time>
      </trkpt>
      <trkpt lat="43.96973" lon="5.16313">
        <ele>545</ele>
        <time>2021-09-19T10:47:39Z</time>
      </trkpt>
      <trkpt lat="43.96985" lon="5.16343">
        <ele>541</ele>
        <time>2021-09-19T10:48:01Z</time>
      </trkpt>
      <trkpt lat="43.96998" lon="5.16365">
        <ele>535.3</ele>
        <time>2021-09-19T10:48:21Z</time>
      </trkpt>
      <trkpt lat="43.97017" lon="5.16382">
        <ele>531.7</ele>
        <time>2021-09-19T10:48:41Z</time>
      </trkpt>
      <trkpt lat="43.9704" lon="5.16404">
        <ele>529.3</ele>
        <time>2021-09-19T10:49:05Z</time>
      </trkpt>
      <trkpt lat="43.97064" lon="5.1642">
        <ele>528.4</ele>
        <time>2021-09-19T10:49:27Z</time>
      </trkpt>
      <trkpt lat="43.97083" lon="5.16422">
        <ele>528.6</ele>
        <time>2021-09-19T10:49:45Z</time>
      </trkpt>
      <trkpt lat="43.97095" lon="5.16413">
        <ele>528.7</ele>
        <time>2021-09-19T10:50:00Z</time>
      </trkpt>
      <trkpt lat="43.97097" lon="5.16411">
        <ele>528.5</ele>
        <time>2021-09-19T10:50:02Z</time>
      </trkpt>
      <trkpt lat="43.97104" lon="5.16402">
        <ele>527.9</ele>
        <time>2021-09-19T10:50:11Z</time>
      </trkpt>
      <trkpt lat="43.97118" lon="5.16388">
        <ele>527</ele>
        <time>2021-09-19T10:50:28Z</time>
      </trkpt>
      <trkpt lat="43.97129" lon="5.16373">
        <ele>526.9</ele>
        <time>2021-09-19T10:50:46Z</time>
      </trkpt>
      <trkpt lat="43.97144" lon="5.16354">
        <ele>527.4</ele>
        <time>2021-09-19T10:51:08Z</time>
      </trkpt>
      <trkpt lat="43.97148" lon="5.16351">
        <ele>527.6</ele>
        <time>2021-09-19T10:51:31Z</time>
      </trkpt>
      <trkpt lat="43.9715" lon="5.16349">
        <ele>527.7</ele>
        <time>2021-09-19T10:51:34Z</time>
      </trkpt>
      <trkpt lat="43.97164" lon="5.16338">
        <ele>528.5</ele>
        <time>2021-09-19T10:51:52Z</time>
      </trkpt>
      <trkpt lat="43.97162" lon="5.16334">
        <ele>528.9</ele>
        <time>2021-09-19T10:52:10Z</time>
      </trkpt>
      <trkpt lat="43.97162" lon="5.16329">
        <ele>528.3</ele>
        <time>2021-09-19T10:52:29Z</time>
      </trkpt>
      <trkpt lat="43.97164" lon="5.16326">
        <ele>527.8</ele>
        <time>2021-09-19T10:52:34Z</time>
      </trkpt>
      <trkpt lat="43.97172" lon="5.16312">
        <ele>525.6</ele>
        <time>2021-09-19T10:52:52Z</time>
      </trkpt>
      <trkpt lat="43.97181" lon="5.16297">
        <ele>523.6</ele>
        <time>2021-09-19T10:53:08Z</time>
      </trkpt>
      <trkpt lat="43.97184" lon="5.1629">
        <ele>522.9</ele>
        <time>2021-09-19T10:53:14Z</time>
      </trkpt>
      <trkpt lat="43.972" lon="5.16272">
        <ele>522.3</ele>
        <time>2021-09-19T10:53:34Z</time>
      </trkpt>
      <trkpt lat="43.97215" lon="5.16258">
        <ele>523.2</ele>
        <time>2021-09-19T10:53:53Z</time>
      </trkpt>
      <trkpt lat="43.9723" lon="5.16245">
        <ele>524.3</ele>
        <time>2021-09-19T10:54:09Z</time>
      </trkpt>
      <trkpt lat="43.97238" lon="5.16228">
        <ele>522.8</ele>
        <time>2021-09-19T10:54:25Z</time>
      </trkpt>
      <trkpt lat="43.97242" lon="5.16219">
        <ele>522.1</ele>
        <time>2021-09-19T10:54:42Z</time>
      </trkpt>
      <trkpt lat="43.97244" lon="5.16199">
        <ele>519.4</ele>
        <time>2021-09-19T10:54:59Z</time>
      </trkpt>
      <trkpt lat="43.97244" lon="5.16192">
        <ele>518.3</ele>
        <time>2021-09-19T10:55:04Z</time>
      </trkpt>
      <trkpt lat="43.97244" lon="5.16157">
        <ele>513.8</ele>
        <time>2021-09-19T10:55:28Z</time>
      </trkpt>
      <trkpt lat="43.97244" lon="5.16135">
        <ele>512.1</ele>
        <time>2021-09-19T10:55:44Z</time>
      </trkpt>
      <trkpt lat="43.97239" lon="5.161">
        <ele>508.1</ele>
        <time>2021-09-19T10:56:09Z</time>
      </trkpt>
      <trkpt lat="43.97237" lon="5.16089">
        <ele>506.7</ele>
        <time>2021-09-19T10:56:29Z</time>
      </trkpt>
      <trkpt lat="43.97237" lon="5.16088">
        <ele>506.6</ele>
        <time>2021-09-19T10:56:51Z</time>
      </trkpt>
      <trkpt lat="43.97234" lon="5.16092">
        <ele>506.1</ele>
        <time>2021-09-19T10:57:07Z</time>
      </trkpt>
      <trkpt lat="43.97233" lon="5.16095">
        <ele>506</ele>
        <time>2021-09-19T10:57:30Z</time>
      </trkpt>
      <trkpt lat="43.97233" lon="5.16095">
        <ele>506</ele>
        <time>2021-09-19T10:57:51Z</time>
      </trkpt>
      <trkpt lat="43.97235" lon="5.16097">
        <ele>506.8</ele>
        <time>2021-09-19T11:00:21Z</time>
      </trkpt>
      <trkpt lat="43.97236" lon="5.16098">
        <ele>507.1</ele>
        <time>2021-09-19T11:01:02Z</time>
      </trkpt>
      <trkpt lat="43.97235" lon="5.16096">
        <ele>506.7</ele>
        <time>2021-09-19T11:02:20Z</time>
      </trkpt>
      <trkpt lat="43.97235" lon="5.16098">
        <ele>506.8</ele>
        <time>2021-09-19T11:04:29Z</time>
      </trkpt>
      <trkpt lat="43.97236" lon="5.16098">
        <ele>507.1</ele>
        <time>2021-09-19T11:06:05Z</time>
      </trkpt>
      <trkpt lat="43.97235" lon="5.16097">
        <ele>506.8</ele>
        <time>2021-09-19T11:08:06Z</time>
      </trkpt>
      <trkpt lat="43.97235" lon="5.16098">
        <ele>506.8</ele>
        <time>2021-09-19T11:10:27Z</time>
      </trkpt>
      <trkpt lat="43.97236" lon="5.16096">
        <ele>507</ele>
        <time>2021-09-19T11:12:27Z</time>
      </trkpt>
      <trkpt lat="43.97235" lon="5.16096">
        <ele>506.7</ele>
        <time>2021-09-19T11:14:42Z</time>
      </trkpt>
      <trkpt lat="43.97236" lon="5.16097">
        <ele>507</ele>
        <time>2021-09-19T11:16:44Z</time>
      </trkpt>
      <trkpt lat="43.97235" lon="5.16096">
        <ele>506.7</ele>
        <time>2021-09-19T11:18:49Z</time>
      </trkpt>
      <trkpt lat="43.97235" lon="5.16097">
        <ele>506.8</ele>
        <time>2021-09-19T11:20:46Z</time>
      </trkpt>
      <trkpt lat="43.97236" lon="5.16095">
        <ele>506.9</ele>
        <time>2021-09-19T11:22:59Z</time>
      </trkpt>
      <trkpt lat="43.97235" lon="5.16097">
        <ele>506.8</ele>
        <time>2021-09-19T11:25:40Z</time>
      </trkpt>
      <trkpt lat="43.97236" lon="5.16094">
        <ele>506.8</ele>
        <time>2021-09-19T11:26:57Z</time>
      </trkpt>
      <trkpt lat="43.97237" lon="5.16095">
        <ele>507.2</ele>
        <time>2021-09-19T11:29:06Z</time>
      </trkpt>
      <trkpt lat="43.97236" lon="5.16097">
        <ele>507</ele>
        <time>2021-09-19T11:32:01Z</time>
      </trkpt>
      <trkpt lat="43.97236" lon="5.16098">
        <ele>507.1</ele>
        <time>2021-09-19T11:33:43Z</time>
      </trkpt>
      <trkpt lat="43.97236" lon="5.16096">
        <ele>507</ele>
        <time>2021-09-19T11:35:48Z</time>
      </trkpt>
      <trkpt lat="43.97237" lon="5.16097">
        <ele>507.3</ele>
        <time>2021-09-19T11:37:42Z</time>
      </trkpt>
      <trkpt lat="43.97234" lon="5.16084">
        <ele>505.4</ele>
        <time>2021-09-19T11:37:58Z</time>
      </trkpt>
      <trkpt lat="43.97227" lon="5.16062">
        <ele>500.8</ele>
        <time>2021-09-19T11:38:14Z</time>
      </trkpt>
      <trkpt lat="43.97226" lon="5.16038">
        <ele>497.6</ele>
        <time>2021-09-19T11:38:33Z</time>
      </trkpt>
      <trkpt lat="43.97223" lon="5.16017">
        <ele>494.5</ele>
        <time>2021-09-19T11:38:51Z</time>
      </trkpt>
      <trkpt lat="43.97214" lon="5.15996">
        <ele>490.2</ele>
        <time>2021-09-19T11:39:12Z</time>
      </trkpt>
      <trkpt lat="43.97216" lon="5.15985">
        <ele>488.5</ele>
        <time>2021-09-19T11:39:26Z</time>
      </trkpt>
      <trkpt lat="43.97219" lon="5.15988">
        <ele>489.5</ele>
        <time>2021-09-19T11:39:53Z</time>
      </trkpt>
      <trkpt lat="43.97217" lon="5.15982">
        <ele>488.1</ele>
        <time>2021-09-19T11:40:18Z</time>
      </trkpt>
      <trkpt lat="43.97216" lon="5.15979">
        <ele>487.4</ele>
        <time>2021-09-19T11:40:54Z</time>
      </trkpt>
      <trkpt lat="43.97215" lon="5.15978">
        <ele>487.1</ele>
        <time>2021-09-19T11:41:32Z</time>
      </trkpt>
      <trkpt lat="43.97215" lon="5.15979">
        <ele>487.3</ele>
        <time>2021-09-19T11:42:31Z</time>
      </trkpt>
      <trkpt lat="43.97221" lon="5.1598">
        <ele>488.3</ele>
        <time>2021-09-19T11:43:19Z</time>
      </trkpt>
      <trkpt lat="43.97226" lon="5.15981">
        <ele>489.2</ele>
        <time>2021-09-19T11:43:42Z</time>
      </trkpt>
      <trkpt lat="43.97229" lon="5.15978">
        <ele>489.1</ele>
        <time>2021-09-19T11:44:00Z</time>
      </trkpt>
      <trkpt lat="43.97234" lon="5.15977">
        <ele>489.5</ele>
        <time>2021-09-19T11:44:27Z</time>
      </trkpt>
      <trkpt lat="43.97242" lon="5.15975">
        <ele>490.2</ele>
        <time>2021-09-19T11:44:49Z</time>
      </trkpt>
      <trkpt lat="43.97247" lon="5.15971">
        <ele>490</ele>
        <time>2021-09-19T11:45:05Z</time>
      </trkpt>
      <trkpt lat="43.97247" lon="5.15969">
        <ele>489.5</ele>
        <time>2021-09-19T11:45:34Z</time>
      </trkpt>
      <trkpt lat="43.97254" lon="5.15972">
        <ele>489.9</ele>
        <time>2021-09-19T11:46:28Z</time>
      </trkpt>
      <trkpt lat="43.9727" lon="5.15968">
        <ele>486.3</ele>
        <time>2021-09-19T11:46:50Z</time>
      </trkpt>
      <trkpt lat="43.97287" lon="5.15963">
        <ele>482.4</ele>
        <time>2021-09-19T11:47:10Z</time>
      </trkpt>
      <trkpt lat="43.973" lon="5.15958">
        <ele>479.3</ele>
        <time>2021-09-19T11:47:28Z</time>
      </trkpt>
      <trkpt lat="43.97311" lon="5.15956">
        <ele>477.2</ele>
        <time>2021-09-19T11:47:47Z</time>
      </trkpt>
      <trkpt lat="43.97319" lon="5.15962">
        <ele>476.9</ele>
        <time>2021-09-19T11:48:04Z</time>
      </trkpt>
      <trkpt lat="43.97324" lon="5.15974">
        <ele>477.9</ele>
        <time>2021-09-19T11:48:23Z</time>
      </trkpt>
      <trkpt lat="43.97319" lon="5.15962">
        <ele>476.9</ele>
        <time>2021-09-19T11:48:39Z</time>
      </trkpt>
      <trkpt lat="43.97318" lon="5.1596">
        <ele>476.7</ele>
        <time>2021-09-19T11:49:45Z</time>
      </trkpt>
      <trkpt lat="43.97318" lon="5.15958">
        <ele>476.4</ele>
        <time>2021-09-19T11:50:21Z</time>
      </trkpt>
      <trkpt lat="43.97319" lon="5.15958">
        <ele>476.3</ele>
        <time>2021-09-19T11:50:58Z</time>
      </trkpt>
      <trkpt lat="43.97322" lon="5.15965">
        <ele>476.9</ele>
        <time>2021-09-19T11:51:05Z</time>
      </trkpt>
      <trkpt lat="43.97327" lon="5.1598">
        <ele>478.3</ele>
        <time>2021-09-19T11:51:21Z</time>
      </trkpt>
      <trkpt lat="43.97331" lon="5.15996">
        <ele>479.9</ele>
        <time>2021-09-19T11:51:36Z</time>
      </trkpt>
      <trkpt lat="43.97337" lon="5.16003">
        <ele>478.3</ele>
        <time>2021-09-19T11:51:55Z</time>
      </trkpt>
      <trkpt lat="43.97334" lon="5.15993">
        <ele>478.6</ele>
        <time>2021-09-19T11:52:33Z</time>
      </trkpt>
      <trkpt lat="43.97335" lon="5.15992">
        <ele>478</ele>
        <time>2021-09-19T11:53:28Z</time>
      </trkpt>
      <trkpt lat="43.97335" lon="5.15977">
        <ele>475.8</ele>
        <time>2021-09-19T11:53:54Z</time>
      </trkpt>
      <trkpt lat="43.97335" lon="5.15972">
        <ele>475.1</ele>
        <time>2021-09-19T11:54:16Z</time>
      </trkpt>
      <trkpt lat="43.97335" lon="5.15956">
        <ele>472.8</ele>
        <time>2021-09-19T11:54:37Z</time>
      </trkpt>
      <trkpt lat="43.97334" lon="5.15936">
        <ele>470.5</ele>
        <time>2021-09-19T11:54:56Z</time>
      </trkpt>
      <trkpt lat="43.97331" lon="5.1591">
        <ele>467.6</ele>
        <time>2021-09-19T11:55:15Z</time>
      </trkpt>
      <trkpt lat="43.97327" lon="5.15886">
        <ele>465.5</ele>
        <time>2021-09-19T11:55:34Z</time>
      </trkpt>
      <trkpt lat="43.97326" lon="5.15881">
        <ele>465</ele>
        <time>2021-09-19T11:55:38Z</time>
      </trkpt>
      <trkpt lat="43.97321" lon="5.15863">
        <ele>463.2</ele>
        <time>2021-09-19T11:55:52Z</time>
      </trkpt>
      <trkpt lat="43.97326" lon="5.15843">
        <ele>460.9</ele>
        <time>2021-09-19T11:56:11Z</time>
      </trkpt>
      <trkpt lat="43.97326" lon="5.15838">
        <ele>460.3</ele>
        <time>2021-09-19T11:56:31Z</time>
      </trkpt>
      <trkpt lat="43.97332" lon="5.15824">
        <ele>459.5</ele>
        <time>2021-09-19T11:56:46Z</time>
      </trkpt>
      <trkpt lat="43.97332" lon="5.15804">
        <ele>458.5</ele>
        <time>2021-09-19T11:57:01Z</time>
      </trkpt>
      <trkpt lat="43.97332" lon="5.15801">
        <ele>458.3</ele>
        <time>2021-09-19T11:57:03Z</time>
      </trkpt>
      <trkpt lat="43.97337" lon="5.15787">
        <ele>456.7</ele>
        <time>2021-09-19T11:57:15Z</time>
      </trkpt>
      <trkpt lat="43.97352" lon="5.15763">
        <ele>451.8</ele>
        <time>2021-09-19T11:57:36Z</time>
      </trkpt>
      <trkpt lat="43.97362" lon="5.15745">
        <ele>449</ele>
        <time>2021-09-19T11:57:52Z</time>
      </trkpt>
      <trkpt lat="43.97368" lon="5.15725">
        <ele>447.5</ele>
        <time>2021-09-19T11:58:07Z</time>
      </trkpt>
      <trkpt lat="43.97371" lon="5.15709">
        <ele>446.8</ele>
        <time>2021-09-19T11:58:22Z</time>
      </trkpt>
      <trkpt lat="43.97375" lon="5.15692">
        <ele>446</ele>
        <time>2021-09-19T11:58:41Z</time>
      </trkpt>
      <trkpt lat="43.97379" lon="5.15689">
        <ele>445.3</ele>
        <time>2021-09-19T11:59:02Z</time>
      </trkpt>
      <trkpt lat="43.97379" lon="5.1569">
        <ele>445.3</ele>
        <time>2021-09-19T11:59:42Z</time>
      </trkpt>
      <trkpt lat="43.97382" lon="5.1569">
        <ele>444.8</ele>
        <time>2021-09-19T12:00:23Z</time>
      </trkpt>
      <trkpt lat="43.97385" lon="5.15693">
        <ele>444.3</ele>
        <time>2021-09-19T12:01:03Z</time>
      </trkpt>
      <trkpt lat="43.97382" lon="5.15687">
        <ele>444.8</ele>
        <time>2021-09-19T12:01:21Z</time>
      </trkpt>
      <trkpt lat="43.97375" lon="5.15683">
        <ele>446</ele>
        <time>2021-09-19T12:01:45Z</time>
      </trkpt>
      <trkpt lat="43.97375" lon="5.1568">
        <ele>446</ele>
        <time>2021-09-19T12:02:03Z</time>
      </trkpt>
      <trkpt lat="43.97376" lon="5.15671">
        <ele>445.9</ele>
        <time>2021-09-19T12:02:28Z</time>
      </trkpt>
      <trkpt lat="43.97376" lon="5.15654">
        <ele>445.6</ele>
        <time>2021-09-19T12:02:46Z</time>
      </trkpt>
      <trkpt lat="43.97377" lon="5.15641">
        <ele>445.1</ele>
        <time>2021-09-19T12:02:58Z</time>
      </trkpt>
      <trkpt lat="43.97378" lon="5.15624">
        <ele>444.6</ele>
        <time>2021-09-19T12:03:14Z</time>
      </trkpt>
      <trkpt lat="43.97377" lon="5.15614">
        <ele>444.5</ele>
        <time>2021-09-19T12:03:22Z</time>
      </trkpt>
      <trkpt lat="43.97374" lon="5.15594">
        <ele>444.4</ele>
        <time>2021-09-19T12:03:40Z</time>
      </trkpt>
      <trkpt lat="43.9737" lon="5.15578">
        <ele>444.3</ele>
        <time>2021-09-19T12:03:55Z</time>
      </trkpt>
      <trkpt lat="43.97365" lon="5.15552">
        <ele>443.6</ele>
        <time>2021-09-19T12:04:17Z</time>
      </trkpt>
      <trkpt lat="43.97364" lon="5.15537">
        <ele>443</ele>
        <time>2021-09-19T12:04:33Z</time>
      </trkpt>
      <trkpt lat="43.97366" lon="5.15512">
        <ele>441.8</ele>
        <time>2021-09-19T12:04:53Z</time>
      </trkpt>
      <trkpt lat="43.9737" lon="5.1549">
        <ele>440.1</ele>
        <time>2021-09-19T12:05:11Z</time>
      </trkpt>
      <trkpt lat="43.9737" lon="5.15489">
        <ele>440.1</ele>
        <time>2021-09-19T12:05:12Z</time>
      </trkpt>
      <trkpt lat="43.97371" lon="5.15481">
        <ele>439.4</ele>
        <time>2021-09-19T12:05:17Z</time>
      </trkpt>
      <trkpt lat="43.97373" lon="5.15449">
        <ele>436.7</ele>
        <time>2021-09-19T12:05:39Z</time>
      </trkpt>
      <trkpt lat="43.97373" lon="5.15418">
        <ele>434.3</ele>
        <time>2021-09-19T12:06:00Z</time>
      </trkpt>
      <trkpt lat="43.97369" lon="5.15386">
        <ele>432.9</ele>
        <time>2021-09-19T12:06:21Z</time>
      </trkpt>
      <trkpt lat="43.9737" lon="5.15372">
        <ele>432</ele>
        <time>2021-09-19T12:06:39Z</time>
      </trkpt>
      <trkpt lat="43.97371" lon="5.15344">
        <ele>430.4</ele>
        <time>2021-09-19T12:06:57Z</time>
      </trkpt>
      <trkpt lat="43.97371" lon="5.15339">
        <ele>430.1</ele>
        <time>2021-09-19T12:07:00Z</time>
      </trkpt>
      <trkpt lat="43.97377" lon="5.15314">
        <ele>429</ele>
        <time>2021-09-19T12:07:19Z</time>
      </trkpt>
      <trkpt lat="43.97378" lon="5.15299">
        <ele>428.7</ele>
        <time>2021-09-19T12:07:30Z</time>
      </trkpt>
      <trkpt lat="43.9738" lon="5.15267">
        <ele>428.1</ele>
        <time>2021-09-19T12:07:51Z</time>
      </trkpt>
      <trkpt lat="43.97382" lon="5.15239">
        <ele>427.1</ele>
        <time>2021-09-19T12:08:12Z</time>
      </trkpt>
      <trkpt lat="43.9739" lon="5.15218">
        <ele>425.9</ele>
        <time>2021-09-19T12:08:30Z</time>
      </trkpt>
      <trkpt lat="43.97396" lon="5.15204">
        <ele>425.4</ele>
        <time>2021-09-19T12:08:46Z</time>
      </trkpt>
      <trkpt lat="43.97398" lon="5.15195">
        <ele>425.2</ele>
        <time>2021-09-19T12:09:03Z</time>
      </trkpt>
      <trkpt lat="43.97404" lon="5.15183">
        <ele>425.2</ele>
        <time>2021-09-19T12:09:21Z</time>
      </trkpt>
      <trkpt lat="43.97415" lon="5.15162">
        <ele>425.4</ele>
        <time>2021-09-19T12:09:41Z</time>
      </trkpt>
      <trkpt lat="43.97419" lon="5.15155">
        <ele>424.7</ele>
        <time>2021-09-19T12:09:47Z</time>
      </trkpt>
      <trkpt lat="43.97433" lon="5.15141">
        <ele>422.1</ele>
        <time>2021-09-19T12:10:03Z</time>
      </trkpt>
      <trkpt lat="43.97445" lon="5.15123">
        <ele>419.8</ele>
        <time>2021-09-19T12:10:23Z</time>
      </trkpt>
      <trkpt lat="43.9745" lon="5.15117">
        <ele>419.1</ele>
        <time>2021-09-19T12:10:42Z</time>
      </trkpt>
      <trkpt lat="43.9745" lon="5.15116">
        <ele>419</ele>
        <time>2021-09-19T12:11:09Z</time>
      </trkpt>
      <trkpt lat="43.97447" lon="5.15111">
        <ele>419</ele>
        <time>2021-09-19T12:11:32Z</time>
      </trkpt>
      <trkpt lat="43.97456" lon="5.15099">
        <ele>417.8</ele>
        <time>2021-09-19T12:11:54Z</time>
      </trkpt>
      <trkpt lat="43.97463" lon="5.15089">
        <ele>417</ele>
        <time>2021-09-19T12:12:15Z</time>
      </trkpt>
      <trkpt lat="43.97476" lon="5.15069">
        <ele>415.6</ele>
        <time>2021-09-19T12:12:34Z</time>
      </trkpt>
      <trkpt lat="43.97483" lon="5.15045">
        <ele>414.7</ele>
        <time>2021-09-19T12:12:53Z</time>
      </trkpt>
      <trkpt lat="43.97489" lon="5.15026">
        <ele>414.2</ele>
        <time>2021-09-19T12:13:12Z</time>
      </trkpt>
      <trkpt lat="43.9749" lon="5.15015">
        <ele>414</ele>
        <time>2021-09-19T12:13:29Z</time>
      </trkpt>
      <trkpt lat="43.97491" lon="5.15">
        <ele>413.7</ele>
        <time>2021-09-19T12:13:50Z</time>
      </trkpt>
      <trkpt lat="43.97496" lon="5.14976">
        <ele>412.1</ele>
        <time>2021-09-19T12:14:11Z</time>
      </trkpt>
      <trkpt lat="43.97496" lon="5.14939">
        <ele>409.4</ele>
        <time>2021-09-19T12:14:38Z</time>
      </trkpt>
      <trkpt lat="43.97496" lon="5.14932">
        <ele>408.9</ele>
        <time>2021-09-19T12:14:58Z</time>
      </trkpt>
      <trkpt lat="43.97497" lon="5.14929">
        <ele>408.7</ele>
        <time>2021-09-19T12:15:59Z</time>
      </trkpt>
      <trkpt lat="43.97497" lon="5.14932">
        <ele>409</ele>
        <time>2021-09-19T12:16:20Z</time>
      </trkpt>
      <trkpt lat="43.97497" lon="5.14932">
        <ele>409</ele>
        <time>2021-09-19T12:16:50Z</time>
      </trkpt>
      <trkpt lat="43.97493" lon="5.1493">
        <ele>408.6</ele>
        <time>2021-09-19T12:17:41Z</time>
      </trkpt>
      <trkpt lat="43.97481" lon="5.14926">
        <ele>407.8</ele>
        <time>2021-09-19T12:17:57Z</time>
      </trkpt>
      <trkpt lat="43.97469" lon="5.14923">
        <ele>407</ele>
        <time>2021-09-19T12:18:12Z</time>
      </trkpt>
      <trkpt lat="43.97453" lon="5.14911">
        <ele>405.4</ele>
        <time>2021-09-19T12:18:33Z</time>
      </trkpt>
      <trkpt lat="43.97441" lon="5.14885">
        <ele>403.2</ele>
        <time>2021-09-19T12:18:56Z</time>
      </trkpt>
      <trkpt lat="43.97433" lon="5.14861">
        <ele>401.2</ele>
        <time>2021-09-19T12:19:14Z</time>
      </trkpt>
      <trkpt lat="43.97425" lon="5.14862">
        <ele>400.7</ele>
        <time>2021-09-19T12:19:29Z</time>
      </trkpt>
      <trkpt lat="43.97421" lon="5.14864">
        <ele>400.5</ele>
        <time>2021-09-19T12:19:48Z</time>
      </trkpt>
      <trkpt lat="43.97419" lon="5.14865">
        <ele>400.4</ele>
        <time>2021-09-19T12:20:13Z</time>
      </trkpt>
      <trkpt lat="43.9742" lon="5.14858">
        <ele>400</ele>
        <time>2021-09-19T12:20:31Z</time>
      </trkpt>
      <trkpt lat="43.97423" lon="5.14862">
        <ele>400.5</ele>
        <time>2021-09-19T12:21:12Z</time>
      </trkpt>
      <trkpt lat="43.97421" lon="5.14859">
        <ele>400.2</ele>
        <time>2021-09-19T12:21:37Z</time>
      </trkpt>
      <trkpt lat="43.97427" lon="5.14862">
        <ele>400.8</ele>
        <time>2021-09-19T12:22:04Z</time>
      </trkpt>
      <trkpt lat="43.97431" lon="5.14855">
        <ele>400.6</ele>
        <time>2021-09-19T12:22:21Z</time>
      </trkpt>
      <trkpt lat="43.97427" lon="5.14834">
        <ele>398.9</ele>
        <time>2021-09-19T12:22:41Z</time>
      </trkpt>
      <trkpt lat="43.97425" lon="5.14817">
        <ele>396.8</ele>
        <time>2021-09-19T12:22:59Z</time>
      </trkpt>
      <trkpt lat="43.97426" lon="5.14796">
        <ele>394.4</ele>
        <time>2021-09-19T12:23:20Z</time>
      </trkpt>
      <trkpt lat="43.97426" lon="5.14774">
        <ele>391.8</ele>
        <time>2021-09-19T12:23:40Z</time>
      </trkpt>
      <trkpt lat="43.97434" lon="5.14766">
        <ele>391.7</ele>
        <time>2021-09-19T12:24:02Z</time>
      </trkpt>
      <trkpt lat="43.9744" lon="5.14763">
        <ele>392</ele>
        <time>2021-09-19T12:24:28Z</time>
      </trkpt>
      <trkpt lat="43.9744" lon="5.14762">
        <ele>391.9</ele>
        <time>2021-09-19T12:24:35Z</time>
      </trkpt>
      <trkpt lat="43.97436" lon="5.14772">
        <ele>392.6</ele>
        <time>2021-09-19T12:24:54Z</time>
      </trkpt>
      <trkpt lat="43.97438" lon="5.14776">
        <ele>393.3</ele>
        <time>2021-09-19T12:25:18Z</time>
      </trkpt>
      <trkpt lat="43.97433" lon="5.1477">
        <ele>392.1</ele>
        <time>2021-09-19T12:25:44Z</time>
      </trkpt>
      <trkpt lat="43.9743" lon="5.14765">
        <ele>391.2</ele>
        <time>2021-09-19T12:26:10Z</time>
      </trkpt>
      <trkpt lat="43.97426" lon="5.14767">
        <ele>391</ele>
        <time>2021-09-19T12:26:45Z</time>
      </trkpt>
      <trkpt lat="43.97427" lon="5.14749">
        <ele>388.9</ele>
        <time>2021-09-19T12:27:05Z</time>
      </trkpt>
      <trkpt lat="43.97434" lon="5.14735">
        <ele>386.8</ele>
        <time>2021-09-19T12:27:23Z</time>
      </trkpt>
      <trkpt lat="43.97449" lon="5.14727">
        <ele>386.7</ele>
        <time>2021-09-19T12:27:44Z</time>
      </trkpt>
      <trkpt lat="43.9746" lon="5.14722">
        <ele>386.8</ele>
        <time>2021-09-19T12:27:57Z</time>
      </trkpt>
      <trkpt lat="43.97472" lon="5.1472">
        <ele>387.6</ele>
        <time>2021-09-19T12:28:13Z</time>
      </trkpt>
      <trkpt lat="43.97477" lon="5.14721">
        <ele>388.3</ele>
        <time>2021-09-19T12:28:19Z</time>
      </trkpt>
      <trkpt lat="43.9749" lon="5.14717">
        <ele>388.8</ele>
        <time>2021-09-19T12:28:36Z</time>
      </trkpt>
      <trkpt lat="43.97505" lon="5.14713">
        <ele>388.6</ele>
        <time>2021-09-19T12:28:55Z</time>
      </trkpt>
      <trkpt lat="43.97521" lon="5.14708">
        <ele>386.2</ele>
        <time>2021-09-19T12:29:13Z</time>
      </trkpt>
      <trkpt lat="43.97536" lon="5.14702">
        <ele>383.8</ele>
        <time>2021-09-19T12:29:30Z</time>
      </trkpt>
      <trkpt lat="43.97554" lon="5.14694">
        <ele>381</ele>
        <time>2021-09-19T12:29:51Z</time>
      </trkpt>
      <trkpt lat="43.97558" lon="5.14692">
        <ele>380.4</ele>
        <time>2021-09-19T12:29:55Z</time>
      </trkpt>
      <trkpt lat="43.97569" lon="5.14687">
        <ele>378.9</ele>
        <time>2021-09-19T12:30:11Z</time>
      </trkpt>
      <trkpt lat="43.97581" lon="5.14685">
        <ele>377.8</ele>
        <time>2021-09-19T12:30:30Z</time>
      </trkpt>
      <trkpt lat="43.97587" lon="5.14682">
        <ele>376.8</ele>
        <time>2021-09-19T12:30:36Z</time>
      </trkpt>
      <trkpt lat="43.97602" lon="5.1468">
        <ele>374.9</ele>
        <time>2021-09-19T12:30:54Z</time>
      </trkpt>
      <trkpt lat="43.97613" lon="5.14672">
        <ele>372.8</ele>
        <time>2021-09-19T12:31:10Z</time>
      </trkpt>
      <trkpt lat="43.97622" lon="5.14662">
        <ele>370.7</ele>
        <time>2021-09-19T12:31:29Z</time>
      </trkpt>
      <trkpt lat="43.97623" lon="5.14659">
        <ele>370.2</ele>
        <time>2021-09-19T12:32:01Z</time>
      </trkpt>
      <trkpt lat="43.97621" lon="5.14656">
        <ele>370</ele>
        <time>2021-09-19T12:32:18Z</time>
      </trkpt>
      <trkpt lat="43.9762" lon="5.14654">
        <ele>369.9</ele>
        <time>2021-09-19T12:32:46Z</time>
      </trkpt>
      <trkpt lat="43.9762" lon="5.14656">
        <ele>370.1</ele>
        <time>2021-09-19T12:33:28Z</time>
      </trkpt>
      <trkpt lat="43.97618" lon="5.14656">
        <ele>370.3</ele>
        <time>2021-09-19T12:34:05Z</time>
      </trkpt>
      <trkpt lat="43.97613" lon="5.14656">
        <ele>370.7</ele>
        <time>2021-09-19T12:34:10Z</time>
      </trkpt>
      <trkpt lat="43.97605" lon="5.1466">
        <ele>371.9</ele>
        <time>2021-09-19T12:34:22Z</time>
      </trkpt>
      <trkpt lat="43.976" lon="5.1466">
        <ele>372.3</ele>
        <time>2021-09-19T12:34:40Z</time>
      </trkpt>
      <trkpt lat="43.97594" lon="5.14662">
        <ele>373.2</ele>
        <time>2021-09-19T12:34:44Z</time>
      </trkpt>
      <trkpt lat="43.97593" lon="5.14662">
        <ele>373.3</ele>
        <time>2021-09-19T12:34:45Z</time>
      </trkpt>
      <trkpt lat="43.97585" lon="5.14662">
        <ele>374</ele>
        <time>2021-09-19T12:34:53Z</time>
      </trkpt>
      <trkpt lat="43.97584" lon="5.14662">
        <ele>374</ele>
        <time>2021-09-19T12:34:54Z</time>
      </trkpt>
      <trkpt lat="43.97583" lon="5.14662">
        <ele>374.1</ele>
        <time>2021-09-19T12:34:55Z</time>
      </trkpt>
      <trkpt lat="43.97567" lon="5.14663">
        <ele>375</ele>
        <time>2021-09-19T12:35:10Z</time>
      </trkpt>
      <trkpt lat="43.9754" lon="5.14666">
        <ele>376.9</ele>
        <time>2021-09-19T12:35:31Z</time>
      </trkpt>
      <trkpt lat="43.97518" lon="5.14668">
        <ele>378.4</ele>
        <time>2021-09-19T12:35:49Z</time>
      </trkpt>
      <trkpt lat="43.975" lon="5.1467">
        <ele>379.7</ele>
        <time>2021-09-19T12:36:04Z</time>
      </trkpt>
      <trkpt lat="43.97498" lon="5.1467">
        <ele>379.5</ele>
        <time>2021-09-19T12:36:06Z</time>
      </trkpt>
      <trkpt lat="43.97476" lon="5.14673">
        <ele>378</ele>
        <time>2021-09-19T12:36:24Z</time>
      </trkpt>
      <trkpt lat="43.97454" lon="5.14672">
        <ele>375.7</ele>
        <time>2021-09-19T12:36:43Z</time>
      </trkpt>
      <trkpt lat="43.97433" lon="5.14677">
        <ele>374.7</ele>
        <time>2021-09-19T12:37:03Z</time>
      </trkpt>
      <trkpt lat="43.97424" lon="5.14681">
        <ele>374.6</ele>
        <time>2021-09-19T12:37:21Z</time>
      </trkpt>
      <trkpt lat="43.97419" lon="5.14684">
        <ele>374.8</ele>
        <time>2021-09-19T12:37:33Z</time>
      </trkpt>
      <trkpt lat="43.97414" lon="5.14687">
        <ele>374.6</ele>
        <time>2021-09-19T12:37:39Z</time>
      </trkpt>
      <trkpt lat="43.97406" lon="5.14695">
        <ele>374.6</ele>
        <time>2021-09-19T12:37:49Z</time>
      </trkpt>
      <trkpt lat="43.97402" lon="5.14702">
        <ele>375</ele>
        <time>2021-09-19T12:38:00Z</time>
      </trkpt>
      <trkpt lat="43.97397" lon="5.14708">
        <ele>375</ele>
        <time>2021-09-19T12:38:06Z</time>
      </trkpt>
      <trkpt lat="43.97395" lon="5.1471">
        <ele>374.8</ele>
        <time>2021-09-19T12:38:07Z</time>
      </trkpt>
      <trkpt lat="43.97393" lon="5.14712">
        <ele>374.7</ele>
        <time>2021-09-19T12:38:08Z</time>
      </trkpt>
      <trkpt lat="43.97387" lon="5.14723">
        <ele>375.1</ele>
        <time>2021-09-19T12:38:18Z</time>
      </trkpt>
      <trkpt lat="43.97386" lon="5.14728">
        <ele>375.7</ele>
        <time>2021-09-19T12:38:20Z</time>
      </trkpt>
      <trkpt lat="43.97388" lon="5.14729">
        <ele>376.3</ele>
        <time>2021-09-19T12:38:33Z</time>
      </trkpt>
      <trkpt lat="43.97388" lon="5.14748">
        <ele>379.4</ele>
        <time>2021-09-19T12:38:51Z</time>
      </trkpt>
      <trkpt lat="43.97388" lon="5.14765">
        <ele>381.2</ele>
        <time>2021-09-19T12:39:03Z</time>
      </trkpt>
      <trkpt lat="43.97387" lon="5.14756">
        <ele>380</ele>
        <time>2021-09-19T12:39:18Z</time>
      </trkpt>
      <trkpt lat="43.97387" lon="5.14755">
        <ele>379.9</ele>
        <time>2021-09-19T12:39:19Z</time>
      </trkpt>
      <trkpt lat="43.97389" lon="5.14733">
        <ele>377.2</ele>
        <time>2021-09-19T12:39:36Z</time>
      </trkpt>
      <trkpt lat="43.97387" lon="5.14733">
        <ele>376.7</ele>
        <time>2021-09-19T12:39:52Z</time>
      </trkpt>
      <trkpt lat="43.97387" lon="5.14738">
        <ele>377.5</ele>
        <time>2021-09-19T12:39:56Z</time>
      </trkpt>
      <trkpt lat="43.97388" lon="5.1474">
        <ele>378.1</ele>
        <time>2021-09-19T12:39:57Z</time>
      </trkpt>
      <trkpt lat="43.97388" lon="5.14742">
        <ele>378.4</ele>
        <time>2021-09-19T12:39:58Z</time>
      </trkpt>
      <trkpt lat="43.9739" lon="5.14768">
        <ele>382.1</ele>
        <time>2021-09-19T12:40:18Z</time>
      </trkpt>
      <trkpt lat="43.97393" lon="5.14795">
        <ele>385.7</ele>
        <time>2021-09-19T12:40:38Z</time>
      </trkpt>
      <trkpt lat="43.97392" lon="5.14827">
        <ele>388.5</ele>
        <time>2021-09-19T12:40:59Z</time>
      </trkpt>
      <trkpt lat="43.97384" lon="5.14852">
        <ele>387.6</ele>
        <time>2021-09-19T12:41:18Z</time>
      </trkpt>
      <trkpt lat="43.97376" lon="5.14862">
        <ele>385.4</ele>
        <time>2021-09-19T12:41:46Z</time>
      </trkpt>
      <trkpt lat="43.9737" lon="5.14878">
        <ele>384.4</ele>
        <time>2021-09-19T12:42:43Z</time>
      </trkpt>
      <trkpt lat="43.97371" lon="5.14882">
        <ele>385.1</ele>
        <time>2021-09-19T12:43:09Z</time>
      </trkpt>
      <trkpt lat="43.97367" lon="5.14895">
        <ele>384.6</ele>
        <time>2021-09-19T12:43:51Z</time>
      </trkpt>
      <trkpt lat="43.97362" lon="5.14898">
        <ele>383</ele>
        <time>2021-09-19T12:44:11Z</time>
      </trkpt>
      <trkpt lat="43.97359" lon="5.14913">
        <ele>383</ele>
        <time>2021-09-19T12:44:30Z</time>
      </trkpt>
      <trkpt lat="43.97359" lon="5.14914">
        <ele>383</ele>
        <time>2021-09-19T12:44:31Z</time>
      </trkpt>
      <trkpt lat="43.97359" lon="5.14916">
        <ele>383.2</ele>
        <time>2021-09-19T12:44:32Z</time>
      </trkpt>
      <trkpt lat="43.97358" lon="5.14917">
        <ele>382.9</ele>
        <time>2021-09-19T12:44:33Z</time>
      </trkpt>
      <trkpt lat="43.97358" lon="5.14919">
        <ele>383.1</ele>
        <time>2021-09-19T12:44:34Z</time>
      </trkpt>
      <trkpt lat="43.97346" lon="5.14951">
        <ele>382.1</ele>
        <time>2021-09-19T12:44:57Z</time>
      </trkpt>
      <trkpt lat="43.97342" lon="5.14963">
        <ele>382</ele>
        <time>2021-09-19T12:45:17Z</time>
      </trkpt>
      <trkpt lat="43.97336" lon="5.14974">
        <ele>381.1</ele>
        <time>2021-09-19T12:45:35Z</time>
      </trkpt>
      <trkpt lat="43.97324" lon="5.14996">
        <ele>381.6</ele>
        <time>2021-09-19T12:45:57Z</time>
      </trkpt>
      <trkpt lat="43.97311" lon="5.15015">
        <ele>382.6</ele>
        <time>2021-09-19T12:46:15Z</time>
      </trkpt>
      <trkpt lat="43.9731" lon="5.15016">
        <ele>382.6</ele>
        <time>2021-09-19T12:46:16Z</time>
      </trkpt>
      <trkpt lat="43.97309" lon="5.15017">
        <ele>382.6</ele>
        <time>2021-09-19T12:46:17Z</time>
      </trkpt>
      <trkpt lat="43.97308" lon="5.1502">
        <ele>382.9</ele>
        <time>2021-09-19T12:46:20Z</time>
      </trkpt>
      <trkpt lat="43.97307" lon="5.15021">
        <ele>382.9</ele>
        <time>2021-09-19T12:46:21Z</time>
      </trkpt>
      <trkpt lat="43.97291" lon="5.15033">
        <ele>382.2</ele>
        <time>2021-09-19T12:46:39Z</time>
      </trkpt>
      <trkpt lat="43.97287" lon="5.15033">
        <ele>381.6</ele>
        <time>2021-09-19T12:46:43Z</time>
      </trkpt>
      <trkpt lat="43.9726" lon="5.15016">
        <ele>376.4</ele>
        <time>2021-09-19T12:47:08Z</time>
      </trkpt>
      <trkpt lat="43.97243" lon="5.14984">
        <ele>375</ele>
        <time>2021-09-19T12:47:33Z</time>
      </trkpt>
      <trkpt lat="43.97244" lon="5.14961">
        <ele>374.7</ele>
        <time>2021-09-19T12:47:50Z</time>
      </trkpt>
      <trkpt lat="43.97242" lon="5.14955">
        <ele>375.1</ele>
        <time>2021-09-19T12:47:55Z</time>
      </trkpt>
      <trkpt lat="43.97241" lon="5.14953">
        <ele>375.3</ele>
        <time>2021-09-19T12:47:56Z</time>
      </trkpt>
      <trkpt lat="43.9724" lon="5.14952">
        <ele>375.5</ele>
        <time>2021-09-19T12:47:57Z</time>
      </trkpt>
      <trkpt lat="43.97234" lon="5.14949">
        <ele>376.7</ele>
        <time>2021-09-19T12:48:04Z</time>
      </trkpt>
      <trkpt lat="43.97233" lon="5.14949">
        <ele>376.9</ele>
        <time>2021-09-19T12:48:05Z</time>
      </trkpt>
      <trkpt lat="43.97225" lon="5.14951">
        <ele>378.5</ele>
        <time>2021-09-19T12:48:13Z</time>
      </trkpt>
      <trkpt lat="43.97216" lon="5.14966">
        <ele>380.1</ele>
        <time>2021-09-19T12:48:31Z</time>
      </trkpt>
      <trkpt lat="43.97204" lon="5.14988">
        <ele>381.6</ele>
        <time>2021-09-19T12:48:53Z</time>
      </trkpt>
      <trkpt lat="43.97197" lon="5.1499">
        <ele>382.7</ele>
        <time>2021-09-19T12:48:59Z</time>
      </trkpt>
      <trkpt lat="43.97186" lon="5.14987">
        <ele>384.7</ele>
        <time>2021-09-19T12:49:10Z</time>
      </trkpt>
      <trkpt lat="43.9718" lon="5.14965">
        <ele>387</ele>
        <time>2021-09-19T12:49:27Z</time>
      </trkpt>
      <trkpt lat="43.97177" lon="5.14935">
        <ele>389.4</ele>
        <time>2021-09-19T12:49:49Z</time>
      </trkpt>
      <trkpt lat="43.97175" lon="5.14915">
        <ele>391.1</ele>
        <time>2021-09-19T12:50:05Z</time>
      </trkpt>
      <trkpt lat="43.97172" lon="5.14888">
        <ele>394.3</ele>
        <time>2021-09-19T12:50:24Z</time>
      </trkpt>
      <trkpt lat="43.97172" lon="5.14882">
        <ele>394.8</ele>
        <time>2021-09-19T12:50:28Z</time>
      </trkpt>
      <trkpt lat="43.97172" lon="5.14881">
        <ele>394.9</ele>
        <time>2021-09-19T12:50:29Z</time>
      </trkpt>
      <trkpt lat="43.97172" lon="5.14879">
        <ele>395.1</ele>
        <time>2021-09-19T12:50:30Z</time>
      </trkpt>
      <trkpt lat="43.97172" lon="5.14877">
        <ele>395.3</ele>
        <time>2021-09-19T12:50:31Z</time>
      </trkpt>
      <trkpt lat="43.9717" lon="5.14859">
        <ele>397.5</ele>
        <time>2021-09-19T12:50:45Z</time>
      </trkpt>
      <trkpt lat="43.9717" lon="5.1485">
        <ele>398.3</ele>
        <time>2021-09-19T12:51:03Z</time>
      </trkpt>
      <trkpt lat="43.97169" lon="5.14837">
        <ele>399.9</ele>
        <time>2021-09-19T12:51:30Z</time>
      </trkpt>
      <trkpt lat="43.9717" lon="5.148">
        <ele>401.9</ele>
        <time>2021-09-19T12:51:55Z</time>
      </trkpt>
      <trkpt lat="43.97172" lon="5.1479">
        <ele>401.8</ele>
        <time>2021-09-19T12:52:02Z</time>
      </trkpt>
      <trkpt lat="43.97176" lon="5.14768">
        <ele>401.8</ele>
        <time>2021-09-19T12:52:17Z</time>
      </trkpt>
      <trkpt lat="43.97176" lon="5.14764">
        <ele>402</ele>
        <time>2021-09-19T12:52:19Z</time>
      </trkpt>
      <trkpt lat="43.97176" lon="5.14762">
        <ele>402.1</ele>
        <time>2021-09-19T12:52:20Z</time>
      </trkpt>
      <trkpt lat="43.97176" lon="5.14761">
        <ele>402.2</ele>
        <time>2021-09-19T12:52:21Z</time>
      </trkpt>
      <trkpt lat="43.9718" lon="5.14738">
        <ele>402.2</ele>
        <time>2021-09-19T12:52:36Z</time>
      </trkpt>
      <trkpt lat="43.97182" lon="5.14724">
        <ele>402.4</ele>
        <time>2021-09-19T12:52:45Z</time>
      </trkpt>
      <trkpt lat="43.97185" lon="5.14708">
        <ele>402.4</ele>
        <time>2021-09-19T12:52:57Z</time>
      </trkpt>
      <trkpt lat="43.97189" lon="5.147">
        <ele>401.7</ele>
        <time>2021-09-19T12:53:16Z</time>
      </trkpt>
      <trkpt lat="43.97192" lon="5.14695">
        <ele>401.1</ele>
        <time>2021-09-19T12:53:43Z</time>
      </trkpt>
      <trkpt lat="43.97194" lon="5.1469">
        <ele>400.9</ele>
        <time>2021-09-19T12:53:47Z</time>
      </trkpt>
      <trkpt lat="43.97195" lon="5.14689">
        <ele>400.7</ele>
        <time>2021-09-19T12:53:48Z</time>
      </trkpt>
      <trkpt lat="43.97201" lon="5.1467">
        <ele>400.3</ele>
        <time>2021-09-19T12:54:02Z</time>
      </trkpt>
      <trkpt lat="43.97198" lon="5.14649">
        <ele>400.3</ele>
        <time>2021-09-19T12:54:20Z</time>
      </trkpt>
      <trkpt lat="43.97196" lon="5.14646">
        <ele>400.6</ele>
        <time>2021-09-19T12:54:40Z</time>
      </trkpt>
      <trkpt lat="43.97183" lon="5.14646">
        <ele>404</ele>
        <time>2021-09-19T12:54:58Z</time>
      </trkpt>
      <trkpt lat="43.97168" lon="5.14648">
        <ele>408.1</ele>
        <time>2021-09-19T12:55:12Z</time>
      </trkpt>
      <trkpt lat="43.97151" lon="5.1465">
        <ele>411.1</ele>
        <time>2021-09-19T12:55:27Z</time>
      </trkpt>
      <trkpt lat="43.97141" lon="5.14649">
        <ele>412.6</ele>
        <time>2021-09-19T12:55:36Z</time>
      </trkpt>
      <trkpt lat="43.97133" lon="5.14649">
        <ele>413.9</ele>
        <time>2021-09-19T12:55:43Z</time>
      </trkpt>
      <trkpt lat="43.97116" lon="5.1465">
        <ele>416.6</ele>
        <time>2021-09-19T12:55:59Z</time>
      </trkpt>
      <trkpt lat="43.971" lon="5.14649">
        <ele>419.1</ele>
        <time>2021-09-19T12:56:17Z</time>
      </trkpt>
      <trkpt lat="43.97088" lon="5.14649">
        <ele>421</ele>
        <time>2021-09-19T12:56:29Z</time>
      </trkpt>
      <trkpt lat="43.97067" lon="5.14648">
        <ele>422.2</ele>
        <time>2021-09-19T12:56:50Z</time>
      </trkpt>
      <trkpt lat="43.97045" lon="5.14636">
        <ele>422.2</ele>
        <time>2021-09-19T12:57:13Z</time>
      </trkpt>
      <trkpt lat="43.9703" lon="5.14616">
        <ele>421.8</ele>
        <time>2021-09-19T12:57:32Z</time>
      </trkpt>
      <trkpt lat="43.97027" lon="5.14607">
        <ele>421.5</ele>
        <time>2021-09-19T12:57:41Z</time>
      </trkpt>
      <trkpt lat="43.97022" lon="5.14595">
        <ele>421.2</ele>
        <time>2021-09-19T12:58:12Z</time>
      </trkpt>
      <trkpt lat="43.97023" lon="5.14586">
        <ele>420.7</ele>
        <time>2021-09-19T12:58:28Z</time>
      </trkpt>
      <trkpt lat="43.97022" lon="5.14569">
        <ele>420.7</ele>
        <time>2021-09-19T12:58:45Z</time>
      </trkpt>
      <trkpt lat="43.97019" lon="5.1457">
        <ele>420.9</ele>
        <time>2021-09-19T12:59:02Z</time>
      </trkpt>
      <trkpt lat="43.97013" lon="5.14565">
        <ele>421.2</ele>
        <time>2021-09-19T12:59:26Z</time>
      </trkpt>
      <trkpt lat="43.97005" lon="5.14548">
        <ele>421.7</ele>
        <time>2021-09-19T12:59:41Z</time>
      </trkpt>
      <trkpt lat="43.97" lon="5.14541">
        <ele>422</ele>
        <time>2021-09-19T13:00:17Z</time>
      </trkpt>
      <trkpt lat="43.96989" lon="5.14526">
        <ele>423</ele>
        <time>2021-09-19T13:00:35Z</time>
      </trkpt>
      <trkpt lat="43.96987" lon="5.14518">
        <ele>423.1</ele>
        <time>2021-09-19T13:00:40Z</time>
      </trkpt>
      <trkpt lat="43.96979" lon="5.14501">
        <ele>423.8</ele>
        <time>2021-09-19T13:00:57Z</time>
      </trkpt>
      <trkpt lat="43.96971" lon="5.14475">
        <ele>423.9</ele>
        <time>2021-09-19T13:01:21Z</time>
      </trkpt>
      <trkpt lat="43.96966" lon="5.14446">
        <ele>423.7</ele>
        <time>2021-09-19T13:01:44Z</time>
      </trkpt>
      <trkpt lat="43.96965" lon="5.14437">
        <ele>423.5</ele>
        <time>2021-09-19T13:01:50Z</time>
      </trkpt>
      <trkpt lat="43.96962" lon="5.14423">
        <ele>423.4</ele>
        <time>2021-09-19T13:01:59Z</time>
      </trkpt>
      <trkpt lat="43.96961" lon="5.14421">
        <ele>423.4</ele>
        <time>2021-09-19T13:02:00Z</time>
      </trkpt>
      <trkpt lat="43.9695" lon="5.14394">
        <ele>423</ele>
        <time>2021-09-19T13:02:19Z</time>
      </trkpt>
      <trkpt lat="43.96939" lon="5.14376">
        <ele>422.8</ele>
        <time>2021-09-19T13:02:36Z</time>
      </trkpt>
      <trkpt lat="43.96935" lon="5.1437">
        <ele>422.8</ele>
        <time>2021-09-19T13:02:41Z</time>
      </trkpt>
      <trkpt lat="43.96922" lon="5.14351">
        <ele>422.6</ele>
        <time>2021-09-19T13:02:58Z</time>
      </trkpt>
      <trkpt lat="43.96911" lon="5.14335">
        <ele>422.4</ele>
        <time>2021-09-19T13:03:13Z</time>
      </trkpt>
      <trkpt lat="43.969" lon="5.14319">
        <ele>422.2</ele>
        <time>2021-09-19T13:03:30Z</time>
      </trkpt>
      <trkpt lat="43.96896" lon="5.14313">
        <ele>422.2</ele>
        <time>2021-09-19T13:03:54Z</time>
      </trkpt>
      <trkpt lat="43.96886" lon="5.14301">
        <ele>422.3</ele>
        <time>2021-09-19T13:04:08Z</time>
      </trkpt>
      <trkpt lat="43.9687" lon="5.14277">
        <ele>422.6</ele>
        <time>2021-09-19T13:04:32Z</time>
      </trkpt>
      <trkpt lat="43.96862" lon="5.14261">
        <ele>422.6</ele>
        <time>2021-09-19T13:04:43Z</time>
      </trkpt>
      <trkpt lat="43.96853" lon="5.14243">
        <ele>422.8</ele>
        <time>2021-09-19T13:04:57Z</time>
      </trkpt>
      <trkpt lat="43.96846" lon="5.14226">
        <ele>422.7</ele>
        <time>2021-09-19T13:05:09Z</time>
      </trkpt>
      <trkpt lat="43.96838" lon="5.14205">
        <ele>422.8</ele>
        <time>2021-09-19T13:05:25Z</time>
      </trkpt>
      <trkpt lat="43.96833" lon="5.1419">
        <ele>422.9</ele>
        <time>2021-09-19T13:05:35Z</time>
      </trkpt>
      <trkpt lat="43.96833" lon="5.14188">
        <ele>422.8</ele>
        <time>2021-09-19T13:05:36Z</time>
      </trkpt>
      <trkpt lat="43.96822" lon="5.14164">
        <ele>423.1</ele>
        <time>2021-09-19T13:05:52Z</time>
      </trkpt>
      <trkpt lat="43.96818" lon="5.14149">
        <ele>423.3</ele>
        <time>2021-09-19T13:06:00Z</time>
      </trkpt>
      <trkpt lat="43.96816" lon="5.14142">
        <ele>423.5</ele>
        <time>2021-09-19T13:06:05Z</time>
      </trkpt>
      <trkpt lat="43.96814" lon="5.14138">
        <ele>423.7</ele>
        <time>2021-09-19T13:06:08Z</time>
      </trkpt>
      <trkpt lat="43.96803" lon="5.14118">
        <ele>424.8</ele>
        <time>2021-09-19T13:06:24Z</time>
      </trkpt>
      <trkpt lat="43.96795" lon="5.14099">
        <ele>425.6</ele>
        <time>2021-09-19T13:06:39Z</time>
      </trkpt>
      <trkpt lat="43.96793" lon="5.14069">
        <ele>425.9</ele>
        <time>2021-09-19T13:06:58Z</time>
      </trkpt>
      <trkpt lat="43.96797" lon="5.14046">
        <ele>425.5</ele>
        <time>2021-09-19T13:07:12Z</time>
      </trkpt>
      <trkpt lat="43.96799" lon="5.14039">
        <ele>425.3</ele>
        <time>2021-09-19T13:07:16Z</time>
      </trkpt>
      <trkpt lat="43.968" lon="5.14037">
        <ele>425.2</ele>
        <time>2021-09-19T13:07:17Z</time>
      </trkpt>
      <trkpt lat="43.968" lon="5.14035">
        <ele>425.2</ele>
        <time>2021-09-19T13:07:18Z</time>
      </trkpt>
      <trkpt lat="43.96809" lon="5.14013">
        <ele>424.6</ele>
        <time>2021-09-19T13:07:32Z</time>
      </trkpt>
      <trkpt lat="43.9681" lon="5.14011">
        <ele>424.6</ele>
        <time>2021-09-19T13:07:33Z</time>
      </trkpt>
      <trkpt lat="43.96811" lon="5.1401">
        <ele>424.5</ele>
        <time>2021-09-19T13:07:34Z</time>
      </trkpt>
      <trkpt lat="43.96811" lon="5.14009">
        <ele>424.5</ele>
        <time>2021-09-19T13:07:35Z</time>
      </trkpt>
      <trkpt lat="43.96812" lon="5.14008">
        <ele>424.4</ele>
        <time>2021-09-19T13:07:36Z</time>
      </trkpt>
      <trkpt lat="43.96813" lon="5.14007">
        <ele>424.4</ele>
        <time>2021-09-19T13:07:37Z</time>
      </trkpt>
      <trkpt lat="43.96814" lon="5.14006">
        <ele>424.3</ele>
        <time>2021-09-19T13:07:38Z</time>
      </trkpt>
      <trkpt lat="43.96815" lon="5.14004">
        <ele>424.3</ele>
        <time>2021-09-19T13:07:39Z</time>
      </trkpt>
      <trkpt lat="43.96823" lon="5.13989">
        <ele>422.1</ele>
        <time>2021-09-19T13:07:53Z</time>
      </trkpt>
      <trkpt lat="43.96837" lon="5.13969">
        <ele>418.8</ele>
        <time>2021-09-19T13:08:09Z</time>
      </trkpt>
      <trkpt lat="43.96848" lon="5.13958">
        <ele>417.3</ele>
        <time>2021-09-19T13:08:27Z</time>
      </trkpt>
      <trkpt lat="43.96851" lon="5.13956">
        <ele>417.1</ele>
        <time>2021-09-19T13:08:53Z</time>
      </trkpt>
      <trkpt lat="43.96855" lon="5.13954">
        <ele>416.8</ele>
        <time>2021-09-19T13:09:11Z</time>
      </trkpt>
      <trkpt lat="43.96854" lon="5.13954">
        <ele>416.8</ele>
        <time>2021-09-19T13:09:48Z</time>
      </trkpt>
      <trkpt lat="43.96864" lon="5.13951">
        <ele>416.6</ele>
        <time>2021-09-19T13:10:41Z</time>
      </trkpt>
      <trkpt lat="43.96879" lon="5.13939">
        <ele>415.9</ele>
        <time>2021-09-19T13:11:01Z</time>
      </trkpt>
      <trkpt lat="43.96889" lon="5.13934">
        <ele>416</ele>
        <time>2021-09-19T13:11:10Z</time>
      </trkpt>
      <trkpt lat="43.96903" lon="5.1393">
        <ele>416.3</ele>
        <time>2021-09-19T13:11:22Z</time>
      </trkpt>
      <trkpt lat="43.96904" lon="5.1393">
        <ele>416.4</ele>
        <time>2021-09-19T13:11:23Z</time>
      </trkpt>
      <trkpt lat="43.96914" lon="5.13925">
        <ele>416.8</ele>
        <time>2021-09-19T13:11:40Z</time>
      </trkpt>
      <trkpt lat="43.96921" lon="5.13921">
        <ele>416.8</ele>
        <time>2021-09-19T13:12:00Z</time>
      </trkpt>
      <trkpt lat="43.96922" lon="5.1392">
        <ele>416.8</ele>
        <time>2021-09-19T13:12:02Z</time>
      </trkpt>
      <trkpt lat="43.9693" lon="5.13905">
        <ele>413.7</ele>
        <time>2021-09-19T13:12:20Z</time>
      </trkpt>
      <trkpt lat="43.96928" lon="5.13902">
        <ele>412.9</ele>
        <time>2021-09-19T13:12:45Z</time>
      </trkpt>
      <trkpt lat="43.96927" lon="5.13902">
        <ele>412.9</ele>
        <time>2021-09-19T13:13:27Z</time>
      </trkpt>
      <trkpt lat="43.96922" lon="5.13904">
        <ele>413.5</ele>
        <time>2021-09-19T13:13:33Z</time>
      </trkpt>
      <trkpt lat="43.96901" lon="5.13912">
        <ele>414.7</ele>
        <time>2021-09-19T13:13:54Z</time>
      </trkpt>
      <trkpt lat="43.96878" lon="5.13914">
        <ele>413.9</ele>
        <time>2021-09-19T13:14:15Z</time>
      </trkpt>
      <trkpt lat="43.96854" lon="5.1392">
        <ele>413.6</ele>
        <time>2021-09-19T13:14:39Z</time>
      </trkpt>
      <trkpt lat="43.96833" lon="5.13922">
        <ele>412.7</ele>
        <time>2021-09-19T13:14:59Z</time>
      </trkpt>
      <trkpt lat="43.96814" lon="5.13921">
        <ele>411.1</ele>
        <time>2021-09-19T13:15:18Z</time>
      </trkpt>
      <trkpt lat="43.96793" lon="5.13917">
        <ele>408.7</ele>
        <time>2021-09-19T13:15:40Z</time>
      </trkpt>
      <trkpt lat="43.96775" lon="5.13917">
        <ele>407.2</ele>
        <time>2021-09-19T13:16:01Z</time>
      </trkpt>
      <trkpt lat="43.96767" lon="5.13919">
        <ele>407</ele>
        <time>2021-09-19T13:16:22Z</time>
      </trkpt>
      <trkpt lat="43.96769" lon="5.13925">
        <ele>408.7</ele>
        <time>2021-09-19T13:17:09Z</time>
      </trkpt>
      <trkpt lat="43.96758" lon="5.13922">
        <ele>407.1</ele>
        <time>2021-09-19T13:17:20Z</time>
      </trkpt>
      <trkpt lat="43.96742" lon="5.1393">
        <ele>408.2</ele>
        <time>2021-09-19T13:17:36Z</time>
      </trkpt>
      <trkpt lat="43.96721" lon="5.13932">
        <ele>407.2</ele>
        <time>2021-09-19T13:17:56Z</time>
      </trkpt>
      <trkpt lat="43.96701" lon="5.13935">
        <ele>406.7</ele>
        <time>2021-09-19T13:18:16Z</time>
      </trkpt>
      <trkpt lat="43.967" lon="5.13935">
        <ele>406.6</ele>
        <time>2021-09-19T13:18:17Z</time>
      </trkpt>
      <trkpt lat="43.96691" lon="5.13936">
        <ele>406.3</ele>
        <time>2021-09-19T13:18:30Z</time>
      </trkpt>
      <trkpt lat="43.96679" lon="5.13939">
        <ele>406.4</ele>
        <time>2021-09-19T13:18:54Z</time>
      </trkpt>
      <trkpt lat="43.96668" lon="5.13942">
        <ele>406.6</ele>
        <time>2021-09-19T13:19:13Z</time>
      </trkpt>
      <trkpt lat="43.96661" lon="5.13946">
        <ele>406.6</ele>
        <time>2021-09-19T13:19:39Z</time>
      </trkpt>
      <trkpt lat="43.96655" lon="5.13944">
        <ele>404.5</ele>
        <time>2021-09-19T13:20:03Z</time>
      </trkpt>
      <trkpt lat="43.96645" lon="5.13942">
        <ele>401.6</ele>
        <time>2021-09-19T13:20:19Z</time>
      </trkpt>
      <trkpt lat="43.9664" lon="5.13942">
        <ele>400.5</ele>
        <time>2021-09-19T13:20:24Z</time>
      </trkpt>
      <trkpt lat="43.96634" lon="5.13943">
        <ele>399.4</ele>
        <time>2021-09-19T13:20:31Z</time>
      </trkpt>
      <trkpt lat="43.96618" lon="5.13945">
        <ele>396.4</ele>
        <time>2021-09-19T13:20:48Z</time>
      </trkpt>
      <trkpt lat="43.96592" lon="5.13959">
        <ele>394.3</ele>
        <time>2021-09-19T13:21:16Z</time>
      </trkpt>
      <trkpt lat="43.96574" lon="5.1398">
        <ele>396.9</ele>
        <time>2021-09-19T13:21:39Z</time>
      </trkpt>
      <trkpt lat="43.96573" lon="5.13981">
        <ele>397.1</ele>
        <time>2021-09-19T13:21:40Z</time>
      </trkpt>
      <trkpt lat="43.96572" lon="5.13983">
        <ele>397.5</ele>
        <time>2021-09-19T13:21:41Z</time>
      </trkpt>
      <trkpt lat="43.96561" lon="5.14012">
        <ele>402</ele>
        <time>2021-09-19T13:22:02Z</time>
      </trkpt>
      <trkpt lat="43.96552" lon="5.14033">
        <ele>403.8</ele>
        <time>2021-09-19T13:22:20Z</time>
      </trkpt>
      <trkpt lat="43.96551" lon="5.14035">
        <ele>403.9</ele>
        <time>2021-09-19T13:22:21Z</time>
      </trkpt>
      <trkpt lat="43.96542" lon="5.14049">
        <ele>404</ele>
        <time>2021-09-19T13:22:34Z</time>
      </trkpt>
      <trkpt lat="43.96532" lon="5.14067">
        <ele>403.9</ele>
        <time>2021-09-19T13:22:51Z</time>
      </trkpt>
      <trkpt lat="43.96518" lon="5.14094">
        <ele>403.9</ele>
        <time>2021-09-19T13:23:13Z</time>
      </trkpt>
      <trkpt lat="43.96506" lon="5.14111">
        <ele>403.6</ele>
        <time>2021-09-19T13:23:32Z</time>
      </trkpt>
      <trkpt lat="43.96483" lon="5.1413">
        <ele>406.6</ele>
        <time>2021-09-19T13:23:59Z</time>
      </trkpt>
      <trkpt lat="43.96471" lon="5.14123">
        <ele>406.8</ele>
      </trkpt>
      <trkpt lat="43.96489" lon="5.14076">
        <ele>398.8</ele>
      </trkpt>
      <trkpt lat="43.9651" lon="5.14016">
        <ele>394.6</ele>
      </trkpt>
      <trkpt lat="43.96542" lon="5.13907">
        <ele>382.9</ele>
      </trkpt>
      <trkpt lat="43.96568" lon="5.13884">
        <ele>378.1</ele>
      </trkpt>
      <trkpt lat="43.96592" lon="5.1383">
        <ele>370.2</ele>
      </trkpt>
      <trkpt lat="43.9666" lon="5.13795">
        <ele>367</ele>
      </trkpt>
      <trkpt lat="43.96746" lon="5.13733">
        <ele>359</ele>
      </trkpt>
      <trkpt lat="43.96954" lon="5.13614">
        <ele>345.4</ele>
      </trkpt>
      <trkpt lat="43.9703" lon="5.1353">
        <ele>341.1</ele>
      </trkpt>
      <trkpt lat="43.97066" lon="5.13473">
        <ele>337</ele>
      </trkpt>
      <trkpt lat="43.97088" lon="5.13395">
        <ele>329.8</ele>
      </trkpt>
      <trkpt lat="43.97126" lon="5.13362">
        <ele>329.5</ele>
      </trkpt>
      <trkpt lat="43.97159" lon="5.13315">
        <ele>322.6</ele>
      </trkpt>
      <trkpt lat="43.97212" lon="5.13315">
        <ele>319.8</ele>
      </trkpt>
      <trkpt lat="43.9726" lon="5.13307">
        <ele>317.6</ele>
      </trkpt>
      <trkpt lat="43.97281" lon="5.13269">
        <ele>313.9</ele>
      </trkpt>
      <trkpt lat="43.97276" lon="5.13221">
        <ele>315.7</ele>
      </trkpt>
      <trkpt lat="43.97219" lon="5.1319">
        <ele>323.3</ele>
      </trkpt>
      <trkpt lat="43.97172" lon="5.13149">
        <ele>333</ele>
      </trkpt>
      <trkpt lat="43.97138" lon="5.13131">
        <ele>341.7</ele>
      </trkpt>
      <trkpt lat="43.97089" lon="5.1311">
        <ele>352</ele>
      </trkpt>
      <trkpt lat="43.97035" lon="5.13107">
        <ele>362</ele>
      </trkpt>
      <trkpt lat="43.97" lon="5.1312">
        <ele>368.2</ele>
      </trkpt>
      <trkpt lat="43.96965" lon="5.13133">
        <ele>375.1</ele>
      </trkpt>
      <trkpt lat="43.96935" lon="5.13139">
        <ele>381.1</ele>
      </trkpt>
      <trkpt lat="43.96926" lon="5.13131">
        <ele>383.1</ele>
      </trkpt>
      <trkpt lat="43.96961" lon="5.13095">
        <ele>376.3</ele>
      </trkpt>
      <trkpt lat="43.96999" lon="5.13068">
        <ele>370.6</ele>
      </trkpt>
      <trkpt lat="43.97003" lon="5.13043">
        <ele>371.9</ele>
      </trkpt>
      <trkpt lat="43.96966" lon="5.13011">
        <ele>380.6</ele>
      </trkpt>
      <trkpt lat="43.96934" lon="5.12996">
        <ele>386.3</ele>
      </trkpt>
      <trkpt lat="43.96897" lon="5.12995">
        <ele>390.9</ele>
      </trkpt>
      <trkpt lat="43.96869" lon="5.1299">
        <ele>393.4</ele>
      </trkpt>
      <trkpt lat="43.96841" lon="5.12996">
        <ele>396.2</ele>
      </trkpt>
      <trkpt lat="43.9683" lon="5.12995">
        <ele>396.9</ele>
      </trkpt>
      <trkpt lat="43.96814" lon="5.12967">
        <ele>396</ele>
      </trkpt>
      <trkpt lat="43.96779" lon="5.1296">
        <ele>395.7</ele>
      </trkpt>
    </trkseg>
  </trk>
</gpx>